<?xml version="1.0" encoding="ISO-8859-1"?>
<gpx version="1.1" 
creator="Memory-Map 5.4.2.1089 http://www.memory-map.com"
 xmlns:xsi="http://www.w3.org/2001/XMLSchema-instance"
 xmlns="http://www.topografix.com/GPX/1/1"
 xsi:schemaLocation="http://www.topografix.com/GPX/1/1 http://www.topografix.com/GPX/1/1/gpx.xsd">
<trk>
<name>Nant Mill</name>
<type>Track</type>
<trkseg>
<trkpt lat="53.0433580001" lon="-3.0618273338"><time>2012-12-29T10:11:34Z</time></trkpt>
<trkpt lat="53.0434903344" lon="-3.0617678324"><ele>154</ele><time>2012-12-29T10:21:19Z</time></trkpt>
<trkpt lat="53.0434178352" lon="-3.0619611661"><ele>154</ele><time>2012-12-29T10:22:24Z</time></trkpt>
<trkpt lat="53.0433933338" lon="-3.0621988336"><ele>153</ele><time>2012-12-29T10:22:37Z</time></trkpt>
<trkpt lat="53.0434850017" lon="-3.0623796662"><ele>154</ele><time>2012-12-29T10:23:06Z</time></trkpt>
<trkpt lat="53.0435351650" lon="-3.0625976682"><ele>155</ele><time>2012-12-29T10:23:24Z</time></trkpt>
<trkpt lat="53.0436286648" lon="-3.0627758344"><ele>155</ele><time>2012-12-29T10:23:36Z</time></trkpt>
<trkpt lat="53.0437241673" lon="-3.0629591664"><ele>154</ele><time>2012-12-29T10:23:50Z</time></trkpt>
<trkpt lat="53.0438226660" lon="-3.0631188353"><ele>154</ele><time>2012-12-29T10:24:02Z</time></trkpt>
<trkpt lat="53.0438919981" lon="-3.0633278330"><ele>154</ele><time>2012-12-29T10:24:15Z</time></trkpt>
<trkpt lat="53.0439618349" lon="-3.0635261655"><ele>155</ele><time>2012-12-29T10:24:33Z</time></trkpt>
<trkpt lat="53.0440285007" lon="-3.0637271682"><ele>154</ele><time>2012-12-29T10:24:48Z</time></trkpt>
<trkpt lat="53.0440660000" lon="-3.0639529983"><ele>155</ele><time>2012-12-29T10:25:06Z</time></trkpt>
<trkpt lat="53.0441986680" lon="-3.0639968316"><ele>155</ele><time>2012-12-29T10:25:28Z</time></trkpt>
<trkpt lat="53.0443333348" lon="-3.0640621662"><ele>154</ele><time>2012-12-29T10:25:39Z</time></trkpt>
<trkpt lat="53.0444478353" lon="-3.0642071684"><ele>154</ele><time>2012-12-29T10:25:51Z</time></trkpt>
<trkpt lat="53.0445400000" lon="-3.0643821677"><ele>154</ele><time>2012-12-29T10:26:03Z</time></trkpt>
<trkpt lat="53.0446031650" lon="-3.0645845016"><ele>156</ele><time>2012-12-29T10:26:17Z</time></trkpt>
<trkpt lat="53.0446566661" lon="-3.0648065011"><ele>156</ele><time>2012-12-29T10:26:29Z</time></trkpt>
<trkpt lat="53.0447174986" lon="-3.0650218328"><ele>157</ele><time>2012-12-29T10:26:42Z</time></trkpt>
<trkpt lat="53.0447324991" lon="-3.0652458350"><ele>157</ele><time>2012-12-29T10:26:53Z</time></trkpt>
<trkpt lat="53.0447733323" lon="-3.0654591680"><ele>159</ele><time>2012-12-29T10:27:14Z</time></trkpt>
<trkpt lat="53.0448133349" lon="-3.0656845013"><ele>160</ele><time>2012-12-29T10:27:30Z</time></trkpt>
<trkpt lat="53.0447780013" lon="-3.0659008344"><ele>161</ele><time>2012-12-29T10:27:47Z</time></trkpt>
<trkpt lat="53.0447421670" lon="-3.0661269983"><ele>162</ele><time>2012-12-29T10:28:04Z</time></trkpt>
<trkpt lat="53.0447026650" lon="-3.0663508336"><ele>163</ele><time>2012-12-29T10:28:19Z</time></trkpt>
<trkpt lat="53.0447275003" lon="-3.0665774981"><ele>165</ele><time>2012-12-29T10:28:33Z</time></trkpt>
<trkpt lat="53.0447281679" lon="-3.0668068329"><ele>166</ele><time>2012-12-29T10:28:49Z</time></trkpt>
<trkpt lat="53.0447243333" lon="-3.0670368354"><ele>168</ele><time>2012-12-29T10:29:08Z</time></trkpt>
<trkpt lat="53.0447909991" lon="-3.0672383308"><ele>169</ele><time>2012-12-29T10:29:24Z</time></trkpt>
<trkpt lat="53.0448151668" lon="-3.0674611648"><ele>169</ele><time>2012-12-29T10:29:39Z</time></trkpt>
<trkpt lat="53.0448751648" lon="-3.0676623344"><ele>170</ele><time>2012-12-29T10:29:55Z</time></trkpt>
<trkpt lat="53.0449608326" lon="-3.0678634961"><ele>170</ele><time>2012-12-29T10:30:11Z</time></trkpt>
<trkpt lat="53.0449501673" lon="-3.0680881659"><ele>170</ele><time>2012-12-29T10:30:21Z</time></trkpt>
<trkpt lat="53.0449844996" lon="-3.0683098316"><ele>172</ele><time>2012-12-29T10:30:43Z</time></trkpt>
<trkpt lat="53.0450673342" lon="-3.0684898297"><ele>171</ele><time>2012-12-29T10:30:58Z</time></trkpt>
<trkpt lat="53.0451853315" lon="-3.0686335007"><ele>171</ele><time>2012-12-29T10:31:15Z</time></trkpt>
<trkpt lat="53.0452526649" lon="-3.0688314994"><ele>175</ele><time>2012-12-29T10:33:00Z</time></trkpt>
<trkpt lat="53.0452624997" lon="-3.0690621694"><ele>176</ele><time>2012-12-29T10:33:26Z</time></trkpt>
<trkpt lat="53.0452061653" lon="-3.0692696651"><ele>176</ele><time>2012-12-29T10:33:51Z</time></trkpt>
<trkpt lat="53.0452958345" lon="-3.0694456657"><ele>176</ele><time>2012-12-29T10:34:19Z</time></trkpt>
<trkpt lat="53.0454250018" lon="-3.0695568323"><ele>176</ele><time>2012-12-29T10:34:35Z</time></trkpt>
<trkpt lat="53.0455595016" lon="-3.0695826689"><ele>176</ele><time>2012-12-29T10:34:48Z</time></trkpt>
<trkpt lat="53.0457028349" lon="-3.0697005033"><ele>176</ele><time>2012-12-29T10:34:58Z</time></trkpt>
<trkpt lat="53.0458238324" lon="-3.0698418299"><ele>175</ele><time>2012-12-29T10:35:08Z</time></trkpt>
<trkpt lat="53.0458988349" lon="-3.0700428327"><ele>174</ele><time>2012-12-29T10:35:21Z</time></trkpt>
<trkpt lat="53.0459149996" lon="-3.0702725013"><ele>174</ele><time>2012-12-29T10:35:34Z</time></trkpt>
<trkpt lat="53.0459565004" lon="-3.0705026706"><ele>174</ele><time>2012-12-29T10:35:47Z</time></trkpt>
<trkpt lat="53.0460281650" lon="-3.0706995010"><ele>175</ele><time>2012-12-29T10:36:08Z</time></trkpt>
<trkpt lat="53.0461463332" lon="-3.0708106677"><ele>175</ele><time>2012-12-29T10:36:18Z</time></trkpt>
<trkpt lat="53.0462870002" lon="-3.0708774964"><ele>175</ele><time>2012-12-29T10:36:30Z</time></trkpt>
<trkpt lat="53.0464255015" lon="-3.0708843311"><ele>175</ele><time>2012-12-29T10:36:43Z</time></trkpt>
<trkpt lat="53.0465606650" lon="-3.0709778309"><ele>174</ele><time>2012-12-29T10:36:55Z</time></trkpt>
<trkpt lat="53.0466940006" lon="-3.0710395018"><ele>174</ele><time>2012-12-29T10:37:10Z</time></trkpt>
<trkpt lat="53.0468248328" lon="-3.0711003304"><ele>174</ele><time>2012-12-29T10:37:26Z</time></trkpt>
<trkpt lat="53.0469050010" lon="-3.0712866704"><ele>173</ele><time>2012-12-29T10:37:52Z</time></trkpt>
<trkpt lat="53.0469723344" lon="-3.0714888334"><ele>174</ele><time>2012-12-29T10:38:25Z</time></trkpt>
<trkpt lat="53.0470376650" lon="-3.0716933330"><ele>174</ele><time>2012-12-29T10:38:39Z</time></trkpt>
<trkpt lat="53.0470665018" lon="-3.0719158332"><ele>174</ele><time>2012-12-29T10:38:53Z</time></trkpt>
<trkpt lat="53.0471081654" lon="-3.0721343358"><ele>175</ele><time>2012-12-29T10:39:06Z</time></trkpt>
<trkpt lat="53.0471768339" lon="-3.0723281701"><ele>176</ele><time>2012-12-29T10:39:18Z</time></trkpt>
<trkpt lat="53.0472166657" lon="-3.0725658337"><ele>177</ele><time>2012-12-29T10:39:31Z</time></trkpt>
<trkpt lat="53.0472735008" lon="-3.0727794965"><ele>178</ele><time>2012-12-29T10:39:46Z</time></trkpt>
<trkpt lat="53.0472984989" lon="-3.0730123361"><ele>180</ele><time>2012-12-29T10:40:00Z</time></trkpt>
<trkpt lat="53.0473244985" lon="-3.0732458353"><ele>181</ele><time>2012-12-29T10:40:15Z</time></trkpt>
<trkpt lat="53.0473496675" lon="-3.0734795014"><ele>183</ele><time>2012-12-29T10:40:28Z</time></trkpt>
<trkpt lat="53.0474064986" lon="-3.0736998320"><ele>184</ele><time>2012-12-29T10:40:42Z</time></trkpt>
<trkpt lat="53.0474239985" lon="-3.0739229997"><ele>185</ele><time>2012-12-29T10:40:57Z</time></trkpt>
<trkpt lat="53.0475636681" lon="-3.0739568313"><ele>186</ele><time>2012-12-29T10:41:16Z</time></trkpt>
<trkpt lat="53.0477138321" lon="-3.0739766677"><ele>187</ele><time>2012-12-29T10:41:32Z</time></trkpt>
<trkpt lat="53.0478566686" lon="-3.0740426699"><ele>188</ele><time>2012-12-29T10:41:42Z</time></trkpt>
<trkpt lat="53.0479871670" lon="-3.0741153320"><ele>190</ele><time>2012-12-29T10:41:56Z</time></trkpt>
<trkpt lat="53.0481051683" lon="-3.0742393335"><ele>191</ele><time>2012-12-29T10:42:10Z</time></trkpt>
<trkpt lat="53.0482289990" lon="-3.0743526697"><ele>192</ele><time>2012-12-29T10:42:26Z</time></trkpt>
<trkpt lat="53.0483471672" lon="-3.0744743347"><ele>194</ele><time>2012-12-29T10:42:40Z</time></trkpt>
<trkpt lat="53.0484705011" lon="-3.0745661656"><ele>201</ele><time>2012-12-29T10:43:17Z</time></trkpt>
<trkpt lat="53.0485854983" lon="-3.0746840000"><ele>204</ele><time>2012-12-29T10:44:24Z</time></trkpt>
<trkpt lat="53.0487043341" lon="-3.0748028358"><ele>203</ele><time>2012-12-29T10:44:38Z</time></trkpt>
<trkpt lat="53.0488190015" lon="-3.0749283314"><ele>203</ele><time>2012-12-29T10:44:53Z</time></trkpt>
<trkpt lat="53.0489334981" lon="-3.0750605027"><ele>204</ele><time>2012-12-29T10:45:08Z</time></trkpt>
<trkpt lat="53.0490475019" lon="-3.0751804988"><ele>204</ele><time>2012-12-29T10:45:19Z</time></trkpt>
<trkpt lat="53.0491571665" lon="-3.0753251632"><ele>204</ele><time>2012-12-29T10:45:34Z</time></trkpt>
<trkpt lat="53.0492421667" lon="-3.0755011638"><ele>206</ele><time>2012-12-29T10:45:51Z</time></trkpt>
<trkpt lat="53.0492964983" lon="-3.0757158359"><ele>206</ele><time>2012-12-29T10:46:07Z</time></trkpt>
<trkpt lat="53.0493791660" lon="-3.0759145021"><ele>207</ele><time>2012-12-29T10:46:21Z</time></trkpt>
<trkpt lat="53.0494508346" lon="-3.0761048317"><ele>208</ele><time>2012-12-29T10:46:33Z</time></trkpt>
<trkpt lat="53.0495205005" lon="-3.0763096650"><ele>208</ele><time>2012-12-29T10:46:47Z</time></trkpt>
<trkpt lat="53.0495989998" lon="-3.0765093327"><ele>208</ele><time>2012-12-29T10:47:00Z</time></trkpt>
<trkpt lat="53.0496723334" lon="-3.0767038345"><ele>209</ele><time>2012-12-29T10:47:14Z</time></trkpt>
<trkpt lat="53.0497346679" lon="-3.0769088348"><ele>209</ele><time>2012-12-29T10:47:28Z</time></trkpt>
<trkpt lat="53.0498271664" lon="-3.0770758311"><ele>213</ele><time>2012-12-29T10:48:59Z</time></trkpt>
<trkpt lat="53.0498271664" lon="-3.0773041646"><ele>213</ele><time>2012-12-29T10:49:10Z</time></trkpt>
<trkpt lat="53.0498094996" lon="-3.0775386651"><ele>213</ele><time>2012-12-29T10:49:23Z</time></trkpt>
<trkpt lat="53.0497473319" lon="-3.0777525028"><ele>214</ele><time>2012-12-29T10:49:40Z</time></trkpt>
<trkpt lat="53.0496873339" lon="-3.0779713313"><ele>216</ele><time>2012-12-29T10:50:09Z</time></trkpt>
<trkpt lat="53.0496213317" lon="-3.0781781673"><ele>217</ele><time>2012-12-29T10:50:21Z</time></trkpt>
<trkpt lat="53.0495929996" lon="-3.0783988317"><ele>217</ele><time>2012-12-29T10:50:38Z</time></trkpt>
<trkpt lat="53.0495869994" lon="-3.0786273321"><ele>217</ele><time>2012-12-29T10:50:54Z</time></trkpt>
<trkpt lat="53.0495523334" lon="-3.0788476706"><ele>218</ele><time>2012-12-29T10:51:04Z</time></trkpt>
<trkpt lat="53.0495509982" lon="-3.0790860017"><ele>219</ele><time>2012-12-29T10:51:16Z</time></trkpt>
<trkpt lat="53.0496385018" lon="-3.0792570035"><ele>221</ele><time>2012-12-29T10:52:05Z</time></trkpt>
<trkpt lat="53.0497388323" lon="-3.0794064999"><ele>221</ele><time>2012-12-29T10:52:18Z</time></trkpt>
<trkpt lat="53.0498225013" lon="-3.0796015024"><ele>220</ele><time>2012-12-29T10:52:31Z</time></trkpt>
<trkpt lat="53.0498263319" lon="-3.0798396667"><ele>220</ele><time>2012-12-29T10:52:45Z</time></trkpt>
<trkpt lat="53.0498171647" lon="-3.0800649961"><ele>222</ele><time>2012-12-29T10:53:07Z</time></trkpt>
<trkpt lat="53.0498578350" lon="-3.0802841663"><ele>222</ele><time>2012-12-29T10:53:25Z</time></trkpt>
<trkpt lat="53.0499126673" lon="-3.0805033366"><ele>223</ele><time>2012-12-29T10:53:38Z</time></trkpt>
<trkpt lat="53.0499856671" lon="-3.0806973298"><ele>223</ele><time>2012-12-29T10:53:50Z</time></trkpt>
<trkpt lat="53.0500349998" lon="-3.0809225003"><ele>224</ele><time>2012-12-29T10:54:02Z</time></trkpt>
<trkpt lat="53.0501018325" lon="-3.0811371644"><ele>225</ele><time>2012-12-29T10:54:14Z</time></trkpt>
<trkpt lat="53.0501601656" lon="-3.0813508352"><ele>225</ele><time>2012-12-29T10:54:26Z</time></trkpt>
<trkpt lat="53.0502290010" lon="-3.0815584977"><ele>226</ele><time>2012-12-29T10:54:37Z</time></trkpt>
<trkpt lat="53.0502870003" lon="-3.0817801634"><ele>227</ele><time>2012-12-29T10:54:49Z</time></trkpt>
<trkpt lat="53.0503308336" lon="-3.0820000013"><ele>228</ele><time>2012-12-29T10:55:01Z</time></trkpt>
<trkpt lat="53.0503893336" lon="-3.0822129965"><ele>229</ele><time>2012-12-29T10:55:13Z</time></trkpt>
<trkpt lat="53.0504305005" lon="-3.0824286699"><ele>230</ele><time>2012-12-29T10:55:27Z</time></trkpt>
<trkpt lat="53.0505381664" lon="-3.0825860023"><ele>230</ele><time>2012-12-29T10:55:47Z</time></trkpt>
<trkpt lat="53.0505789995" lon="-3.0828156630"><ele>233</ele><time>2012-12-29T10:56:34Z</time></trkpt>
<trkpt lat="53.0506779989" lon="-3.0829874992"><ele>235</ele><time>2012-12-29T10:56:45Z</time></trkpt>
<trkpt lat="53.0507355014" lon="-3.0832033316"><ele>237</ele><time>2012-12-29T10:56:59Z</time></trkpt>
<trkpt lat="53.0508329988" lon="-3.0833853324"><ele>237</ele><time>2012-12-29T10:57:18Z</time></trkpt>
<trkpt lat="53.0509076675" lon="-3.0835768302"><ele>237</ele><time>2012-12-29T10:57:28Z</time></trkpt>
<trkpt lat="53.0510106683" lon="-3.0837388357"><ele>238</ele><time>2012-12-29T10:57:38Z</time></trkpt>
<trkpt lat="53.0510899981" lon="-3.0839303335"><ele>238</ele><time>2012-12-29T10:57:49Z</time></trkpt>
<trkpt lat="53.0511591673" lon="-3.0841421684"><ele>239</ele><time>2012-12-29T10:58:00Z</time></trkpt>
<trkpt lat="53.0512309988" lon="-3.0843371630"><ele>239</ele><time>2012-12-29T10:58:13Z</time></trkpt>
<trkpt lat="53.0512493332" lon="-3.0845618327"><ele>239</ele><time>2012-12-29T10:58:28Z</time></trkpt>
<trkpt lat="53.0511719982" lon="-3.0847515027"><ele>241</ele><time>2012-12-29T10:58:45Z</time></trkpt>
<trkpt lat="53.0512090007" lon="-3.0849809964"><ele>243</ele><time>2012-12-29T10:59:09Z</time></trkpt>
<trkpt lat="53.0513260007" lon="-3.0851073345"><ele>243</ele><time>2012-12-29T10:59:24Z</time></trkpt>
<trkpt lat="53.0514268319" lon="-3.0852568309"><ele>243</ele><time>2012-12-29T10:59:38Z</time></trkpt>
<trkpt lat="53.0515268326" lon="-3.0854243358"><ele>244</ele><time>2012-12-29T10:59:54Z</time></trkpt>
<trkpt lat="53.0516086658" lon="-3.0856153329"><ele>244</ele><time>2012-12-29T11:00:07Z</time></trkpt>
<trkpt lat="53.0516873320" lon="-3.0858166695"><ele>245</ele><time>2012-12-29T11:00:18Z</time></trkpt>
<trkpt lat="53.0517798344" lon="-3.0859893322"><ele>246</ele><time>2012-12-29T11:00:31Z</time></trkpt>
<trkpt lat="53.0518491666" lon="-3.0861905018"><ele>246</ele><time>2012-12-29T11:00:43Z</time></trkpt>
<trkpt lat="53.0519200007" lon="-3.0863879999"><ele>247</ele><time>2012-12-29T11:00:55Z</time></trkpt>
<trkpt lat="53.0519956668" lon="-3.0865909974"><ele>247</ele><time>2012-12-29T11:01:08Z</time></trkpt>
<trkpt lat="53.0520713329" lon="-3.0867898305"><ele>247</ele><time>2012-12-29T11:01:22Z</time></trkpt>
<trkpt lat="53.0521096667" lon="-3.0870091677"><ele>248</ele><time>2012-12-29T11:01:34Z</time></trkpt>
<trkpt lat="53.0522019982" lon="-3.0871893326"><ele>249</ele><time>2012-12-29T11:01:53Z</time></trkpt>
<trkpt lat="53.0522208333" lon="-3.0874250015"><ele>250</ele><time>2012-12-29T11:02:14Z</time></trkpt>
<trkpt lat="53.0522975008" lon="-3.0876186689"><ele>251</ele><time>2012-12-29T11:02:31Z</time></trkpt>
<trkpt lat="53.0523301681" lon="-3.0878384988"><ele>252</ele><time>2012-12-29T11:02:46Z</time></trkpt>
<trkpt lat="53.0524103324" lon="-3.0880201658"><ele>253</ele><time>2012-12-29T11:03:02Z</time></trkpt>
<trkpt lat="53.0524673343" lon="-3.0882354975"><ele>253</ele><time>2012-12-29T11:03:13Z</time></trkpt>
<trkpt lat="53.0525211652" lon="-3.0884486675"><ele>254</ele><time>2012-12-29T11:03:26Z</time></trkpt>
<trkpt lat="53.0526218335" lon="-3.0886123339"><ele>255</ele><time>2012-12-29T11:03:40Z</time></trkpt>
<trkpt lat="53.0527195017" lon="-3.0887836695"><ele>255</ele><time>2012-12-29T11:03:53Z</time></trkpt>
<trkpt lat="53.0528194984" lon="-3.0889394999"><ele>255</ele><time>2012-12-29T11:04:04Z</time></trkpt>
<trkpt lat="53.0529078325" lon="-3.0891141653"><ele>256</ele><time>2012-12-29T11:04:21Z</time></trkpt>
<trkpt lat="53.0529839993" lon="-3.0893009981"><ele>257</ele><time>2012-12-29T11:04:33Z</time></trkpt>
<trkpt lat="53.0530900002" lon="-3.0894653320"><ele>257</ele><time>2012-12-29T11:04:45Z</time></trkpt>
<trkpt lat="53.0531755010" lon="-3.0896545013"><ele>257</ele><time>2012-12-29T11:04:55Z</time></trkpt>
<trkpt lat="53.0532458345" lon="-3.0898456653"><ele>257</ele><time>2012-12-29T11:05:05Z</time></trkpt>
<trkpt lat="53.0533165018" lon="-3.0900441647"><ele>257</ele><time>2012-12-29T11:05:17Z</time></trkpt>
<trkpt lat="53.0533793330" lon="-3.0902491649"><ele>258</ele><time>2012-12-29T11:05:29Z</time></trkpt>
<trkpt lat="53.0534386675" lon="-3.0904670000"><ele>258</ele><time>2012-12-29T11:05:42Z</time></trkpt>
<trkpt lat="53.0535023332" lon="-3.0906706651"><ele>258</ele><time>2012-12-29T11:05:55Z</time></trkpt>
<trkpt lat="53.0535596649" lon="-3.0908879995"><ele>258</ele><time>2012-12-29T11:06:07Z</time></trkpt>
<trkpt lat="53.0536193331" lon="-3.0910974979"><ele>258</ele><time>2012-12-29T11:06:19Z</time></trkpt>
<trkpt lat="53.0536741654" lon="-3.0913194974"><ele>259</ele><time>2012-12-29T11:06:33Z</time></trkpt>
<trkpt lat="53.0537406683" lon="-3.0915163358"><ele>259</ele><time>2012-12-29T11:06:45Z</time></trkpt>
<trkpt lat="53.0538141648" lon="-3.0917151690"><ele>259</ele><time>2012-12-29T11:06:57Z</time></trkpt>
<trkpt lat="53.0538583318" lon="-3.0919274966"><ele>259</ele><time>2012-12-29T11:07:08Z</time></trkpt>
<trkpt lat="53.0539155006" lon="-3.0921351671"><ele>260</ele><time>2012-12-29T11:07:24Z</time></trkpt>
<trkpt lat="53.0539970001" lon="-3.0923209985"><ele>261</ele><time>2012-12-29T11:07:35Z</time></trkpt>
<trkpt lat="53.0540738344" lon="-3.0925050020"><ele>261</ele><time>2012-12-29T11:07:46Z</time></trkpt>
<trkpt lat="53.0541664998" lon="-3.0926953316"><ele>262</ele><time>2012-12-29T11:07:59Z</time></trkpt>
<trkpt lat="53.0542345007" lon="-3.0929021676"><ele>262</ele><time>2012-12-29T11:08:14Z</time></trkpt>
<trkpt lat="53.0543299993" lon="-3.0930881659"><ele>262</ele><time>2012-12-29T11:08:27Z</time></trkpt>
<trkpt lat="53.0544135014" lon="-3.0932835023"><ele>263</ele><time>2012-12-29T11:08:39Z</time></trkpt>
<trkpt lat="53.0545056661" lon="-3.0934493303"><ele>264</ele><time>2012-12-29T11:08:52Z</time></trkpt>
<trkpt lat="53.0545761665" lon="-3.0936470032"><ele>264</ele><time>2012-12-29T11:09:04Z</time></trkpt>
<trkpt lat="53.0546551665" lon="-3.0938388348"><ele>264</ele><time>2012-12-29T11:09:17Z</time></trkpt>
<trkpt lat="53.0547388315" lon="-3.0940181653"><ele>264</ele><time>2012-12-29T11:09:28Z</time></trkpt>
<trkpt lat="53.0548359990" lon="-3.0941778342"><ele>273</ele><time>2012-12-29T11:10:28Z</time></trkpt>
<trkpt lat="53.0547538320" lon="-3.0939796686"><ele>271</ele><time>2012-12-29T11:12:00Z</time></trkpt>
<trkpt lat="53.0546721657" lon="-3.0938008308"><ele>270</ele><time>2012-12-29T11:12:13Z</time></trkpt>
<trkpt lat="53.0545873324" lon="-3.0936181704"><ele>269</ele><time>2012-12-29T11:12:27Z</time></trkpt>
<trkpt lat="53.0544999997" lon="-3.0934190035"><ele>268</ele><time>2012-12-29T11:12:41Z</time></trkpt>
<trkpt lat="53.0544040004" lon="-3.0932443301"><ele>268</ele><time>2012-12-29T11:12:51Z</time></trkpt>
<trkpt lat="53.0543271661" lon="-3.0930453300"><ele>268</ele><time>2012-12-29T11:13:07Z</time></trkpt>
<trkpt lat="53.0542393327" lon="-3.0928691705"><ele>267</ele><time>2012-12-29T11:13:19Z</time></trkpt>
<trkpt lat="53.0541603327" lon="-3.0926696698"><ele>267</ele><time>2012-12-29T11:13:31Z</time></trkpt>
<trkpt lat="53.0540708343" lon="-3.0924920003"><ele>266</ele><time>2012-12-29T11:13:43Z</time></trkpt>
<trkpt lat="53.0539688349" lon="-3.0923268318"><ele>266</ele><time>2012-12-29T11:13:57Z</time></trkpt>
<trkpt lat="53.0538900018" lon="-3.0921338320"><ele>266</ele><time>2012-12-29T11:14:13Z</time></trkpt>
<trkpt lat="53.0538020015" lon="-3.0919629971"><ele>265</ele><time>2012-12-29T11:14:24Z</time></trkpt>
<trkpt lat="53.0537321647" lon="-3.0917699973"><ele>265</ele><time>2012-12-29T11:14:36Z</time></trkpt>
<trkpt lat="53.0536173344" lon="-3.0915943305"><ele>264</ele><time>2012-12-29T11:14:46Z</time></trkpt>
<trkpt lat="53.0534765005" lon="-3.0915581703"><ele>264</ele><time>2012-12-29T11:15:36Z</time></trkpt>
<trkpt lat="53.0533506672" lon="-3.0916413307"><ele>264</ele><time>2012-12-29T11:16:03Z</time></trkpt>
<trkpt lat="53.0532511671" lon="-3.0918081681"><ele>265</ele><time>2012-12-29T11:16:26Z</time></trkpt>
<trkpt lat="53.0531278332" lon="-3.0919186672"><ele>266</ele><time>2012-12-29T11:16:50Z</time></trkpt>
<trkpt lat="53.0529921651" lon="-3.0918971697"><ele>269</ele><time>2012-12-29T11:17:17Z</time></trkpt>
<trkpt lat="53.0530413349" lon="-3.0921088298"><ele>270</ele><time>2012-12-29T11:17:37Z</time></trkpt>
<trkpt lat="53.0530823350" lon="-3.0923281670"><ele>272</ele><time>2012-12-29T11:17:51Z</time></trkpt>
<trkpt lat="53.0531281670" lon="-3.0925465027"><ele>273</ele><time>2012-12-29T11:18:06Z</time></trkpt>
<trkpt lat="53.0531485001" lon="-3.0927786668"><ele>277</ele><time>2012-12-29T11:18:20Z</time></trkpt>
<trkpt lat="53.0532311678" lon="-3.0929691633"><ele>279</ele><time>2012-12-29T11:18:34Z</time></trkpt>
<trkpt lat="53.0533178329" lon="-3.0931546688"><ele>280</ele><time>2012-12-29T11:18:47Z</time></trkpt>
<trkpt lat="53.0534201662" lon="-3.0933053335"><ele>282</ele><time>2012-12-29T11:18:59Z</time></trkpt>
<trkpt lat="53.0535453320" lon="-3.0934350014"><ele>284</ele><time>2012-12-29T11:19:11Z</time></trkpt>
<trkpt lat="53.0536438346" lon="-3.0935894966"><ele>285</ele><time>2012-12-29T11:19:23Z</time></trkpt>
<trkpt lat="53.0537504991" lon="-3.0937470039"><ele>287</ele><time>2012-12-29T11:19:35Z</time></trkpt>
<trkpt lat="53.0538568338" lon="-3.0939101696"><ele>288</ele><time>2012-12-29T11:19:46Z</time></trkpt>
<trkpt lat="53.0539535006" lon="-3.0940748294"><ele>289</ele><time>2012-12-29T11:20:01Z</time></trkpt>
<trkpt lat="53.0540363352" lon="-3.0942643325"><ele>290</ele><time>2012-12-29T11:20:14Z</time></trkpt>
<trkpt lat="53.0541151683" lon="-3.0944518328"><ele>291</ele><time>2012-12-29T11:20:25Z</time></trkpt>
<trkpt lat="53.0541850011" lon="-3.0946609974"><ele>292</ele><time>2012-12-29T11:20:37Z</time></trkpt>
<trkpt lat="53.0542454998" lon="-3.0948668321"><ele>292</ele><time>2012-12-29T11:20:49Z</time></trkpt>
<trkpt lat="53.0542663336" lon="-3.0950938304"><ele>295</ele><time>2012-12-29T11:21:24Z</time></trkpt>
<trkpt lat="53.0543075005" lon="-3.0953211705"><ele>296</ele><time>2012-12-29T11:21:37Z</time></trkpt>
<trkpt lat="53.0543318351" lon="-3.0955588341"><ele>296</ele><time>2012-12-29T11:21:50Z</time></trkpt>
<trkpt lat="53.0543548346" lon="-3.0957945029"><ele>297</ele><time>2012-12-29T11:22:02Z</time></trkpt>
<trkpt lat="53.0543660005" lon="-3.0960323334"><ele>297</ele><time>2012-12-29T11:22:15Z</time></trkpt>
<trkpt lat="53.0544486682" lon="-3.0962194999"><ele>298</ele><time>2012-12-29T11:22:27Z</time></trkpt>
<trkpt lat="53.0544923345" lon="-3.0964406649"><ele>299</ele><time>2012-12-29T11:22:39Z</time></trkpt>
<trkpt lat="53.0545513352" lon="-3.0966443300"><ele>300</ele><time>2012-12-29T11:22:49Z</time></trkpt>
<trkpt lat="53.0546000004" lon="-3.0968608300"><ele>301</ele><time>2012-12-29T11:23:01Z</time></trkpt>
<trkpt lat="53.0546691656" lon="-3.0970534960"><ele>302</ele><time>2012-12-29T11:23:12Z</time></trkpt>
<trkpt lat="53.0547039986" lon="-3.0972711643"><ele>303</ele><time>2012-12-29T11:23:25Z</time></trkpt>
<trkpt lat="53.0547235012" lon="-3.0975009998"><ele>305</ele><time>2012-12-29T11:23:42Z</time></trkpt>
<trkpt lat="53.0547623316" lon="-3.0977269967"><ele>306</ele><time>2012-12-29T11:23:54Z</time></trkpt>
<trkpt lat="53.0548046668" lon="-3.0979546706"><ele>308</ele><time>2012-12-29T11:24:06Z</time></trkpt>
<trkpt lat="53.0548228343" lon="-3.0981911659"><ele>309</ele><time>2012-12-29T11:24:20Z</time></trkpt>
<trkpt lat="53.0548526684" lon="-3.0984238307"><ele>311</ele><time>2012-12-29T11:24:35Z</time></trkpt>
<trkpt lat="53.0549106677" lon="-3.0986466646"><ele>312</ele><time>2012-12-29T11:24:48Z</time></trkpt>
<trkpt lat="53.0549413323" lon="-3.0988798300"><ele>314</ele><time>2012-12-29T11:24:59Z</time></trkpt>
<trkpt lat="53.0550015012" lon="-3.0990909974"><ele>315</ele><time>2012-12-29T11:25:11Z</time></trkpt>
<trkpt lat="53.0550545017" lon="-3.0993106683"><ele>316</ele><time>2012-12-29T11:25:22Z</time></trkpt>
<trkpt lat="53.0551043351" lon="-3.0995336692"><ele>319</ele><time>2012-12-29T11:25:33Z</time></trkpt>
<trkpt lat="53.0551629980" lon="-3.0997563362"><ele>320</ele><time>2012-12-29T11:25:45Z</time></trkpt>
<trkpt lat="53.0552231669" lon="-3.0999651670"><ele>323</ele><time>2012-12-29T11:26:04Z</time></trkpt>
<trkpt lat="53.0552356680" lon="-3.1001890024"><ele>331</ele><time>2012-12-29T11:32:52Z</time></trkpt>
<trkpt lat="53.0551731666" lon="-3.0999868313"><ele>329</ele><time>2012-12-29T11:39:18Z</time></trkpt>
<trkpt lat="53.0550565004" lon="-3.0998720010"><ele>329</ele><time>2012-12-29T11:39:35Z</time></trkpt>
<trkpt lat="53.0549481670" lon="-3.0997313341"><ele>330</ele><time>2012-12-29T11:39:55Z</time></trkpt>
<trkpt lat="53.0548255006" lon="-3.0996330023"><ele>331</ele><time>2012-12-29T11:40:13Z</time></trkpt>
<trkpt lat="53.0547101657" lon="-3.0995009979"><ele>332</ele><time>2012-12-29T11:40:34Z</time></trkpt>
<trkpt lat="53.0546163321" lon="-3.0993390004"><ele>333</ele><time>2012-12-29T11:40:51Z</time></trkpt>
<trkpt lat="53.0545181672" lon="-3.0991739988"><ele>335</ele><time>2012-12-29T11:41:06Z</time></trkpt>
<trkpt lat="53.0544103344" lon="-3.0990394990"><ele>336</ele><time>2012-12-29T11:41:23Z</time></trkpt>
<trkpt lat="53.0543504993" lon="-3.0988306681"><ele>337</ele><time>2012-12-29T11:41:39Z</time></trkpt>
<trkpt lat="53.0542548339" lon="-3.0986618360"><ele>338</ele><time>2012-12-29T11:41:59Z</time></trkpt>
<trkpt lat="53.0541569988" lon="-3.0985033353"><ele>339</ele><time>2012-12-29T11:42:18Z</time></trkpt>
<trkpt lat="53.0540691654" lon="-3.0983330011"><ele>340</ele><time>2012-12-29T11:42:37Z</time></trkpt>
<trkpt lat="53.0539765000" lon="-3.0981533368"><ele>340</ele><time>2012-12-29T11:42:51Z</time></trkpt>
<trkpt lat="53.0538596670" lon="-3.0980386655"><ele>341</ele><time>2012-12-29T11:43:17Z</time></trkpt>
<trkpt lat="53.0537264983" lon="-3.0979726632"><ele>343</ele><time>2012-12-29T11:43:42Z</time></trkpt>
<trkpt lat="53.0536449989" lon="-3.0977819999"><ele>347</ele><time>2012-12-29T11:44:17Z</time></trkpt>
<trkpt lat="53.0535428325" lon="-3.0976126671"><ele>349</ele><time>2012-12-29T11:44:35Z</time></trkpt>
<trkpt lat="53.0534416676" lon="-3.0974513372"><ele>352</ele><time>2012-12-29T11:44:58Z</time></trkpt>
<trkpt lat="53.0534006675" lon="-3.0972374996"><ele>353</ele><time>2012-12-29T11:45:20Z</time></trkpt>
<trkpt lat="53.0532849987" lon="-3.0971155008"><ele>353</ele><time>2012-12-29T11:45:44Z</time></trkpt>
<trkpt lat="53.0532141685" lon="-3.0969125032"><ele>352</ele><time>2012-12-29T11:46:15Z</time></trkpt>
<trkpt lat="53.0531865001" lon="-3.0966841698"><ele>354</ele><time>2012-12-29T11:46:57Z</time></trkpt>
<trkpt lat="53.0531175017" lon="-3.0964900017"><ele>354</ele><time>2012-12-29T11:47:18Z</time></trkpt>
<trkpt lat="53.0530501684" lon="-3.0962834994"><ele>355</ele><time>2012-12-29T11:47:31Z</time></trkpt>
<trkpt lat="53.0529641668" lon="-3.0961108367"><ele>357</ele><time>2012-12-29T11:47:46Z</time></trkpt>
<trkpt lat="53.0528628349" lon="-3.0959590038"><ele>359</ele><time>2012-12-29T11:48:05Z</time></trkpt>
<trkpt lat="53.0527516683" lon="-3.0958235025"><ele>360</ele><time>2012-12-29T11:48:21Z</time></trkpt>
<trkpt lat="53.0526596665" lon="-3.0956585010"><ele>361</ele><time>2012-12-29T11:48:37Z</time></trkpt>
<trkpt lat="53.0525619984" lon="-3.0954948346"><ele>362</ele><time>2012-12-29T11:48:51Z</time></trkpt>
<trkpt lat="53.0524738352" lon="-3.0953121662"><ele>362</ele><time>2012-12-29T11:49:05Z</time></trkpt>
<trkpt lat="53.0523763339" lon="-3.0951409976"><ele>362</ele><time>2012-12-29T11:49:18Z</time></trkpt>
<trkpt lat="53.0522968332" lon="-3.0949518363"><ele>362</ele><time>2012-12-29T11:49:34Z</time></trkpt>
<trkpt lat="53.0521646659" lon="-3.0950296640"><ele>361</ele><time>2012-12-29T11:49:55Z</time></trkpt>
<trkpt lat="53.0520318349" lon="-3.0949700038"><ele>361</ele><time>2012-12-29T11:50:13Z</time></trkpt>
<trkpt lat="53.0519649982" lon="-3.0947630008"><ele>361</ele><time>2012-12-29T11:50:32Z</time></trkpt>
<trkpt lat="53.0518913349" lon="-3.0945619980"><ele>360</ele><time>2012-12-29T11:50:48Z</time></trkpt>
<trkpt lat="53.0518458327" lon="-3.0943461657"><ele>360</ele><time>2012-12-29T11:51:03Z</time></trkpt>
<trkpt lat="53.0517404993" lon="-3.0942043304"><ele>360</ele><time>2012-12-29T11:52:49Z</time></trkpt>
<trkpt lat="53.0516051650" lon="-3.0941960017"><ele>363</ele><time>2012-12-29T11:55:10Z</time></trkpt>
<trkpt lat="53.0514726679" lon="-3.0941046635"><ele>364</ele><time>2012-12-29T11:55:29Z</time></trkpt>
<trkpt lat="53.0513960004" lon="-3.0939121644"><ele>365</ele><time>2012-12-29T11:55:41Z</time></trkpt>
<trkpt lat="53.0513308326" lon="-3.0937056700"><ele>365</ele><time>2012-12-29T11:55:58Z</time></trkpt>
<trkpt lat="53.0512623350" lon="-3.0935041666"><ele>364</ele><time>2012-12-29T11:56:22Z</time></trkpt>
<trkpt lat="53.0511726658" lon="-3.0933144967"><ele>364</ele><time>2012-12-29T11:56:36Z</time></trkpt>
<trkpt lat="53.0510754983" lon="-3.0931471666"><ele>363</ele><time>2012-12-29T11:56:48Z</time></trkpt>
<trkpt lat="53.0509805004" lon="-3.0929826657"><ele>363</ele><time>2012-12-29T11:57:01Z</time></trkpt>
<trkpt lat="53.0508853316" lon="-3.0928056637"><ele>363</ele><time>2012-12-29T11:57:14Z</time></trkpt>
<trkpt lat="53.0507418315" lon="-3.0927291632"><ele>360</ele><time>2012-12-29T11:58:43Z</time></trkpt>
<trkpt lat="53.0506613334" lon="-3.0925338348"><ele>360</ele><time>2012-12-29T11:58:58Z</time></trkpt>
<trkpt lat="53.0505544980" lon="-3.0923886696"><ele>360</ele><time>2012-12-29T11:59:09Z</time></trkpt>
<trkpt lat="53.0504313350" lon="-3.0922956705"><ele>361</ele><time>2012-12-29T11:59:22Z</time></trkpt>
<trkpt lat="53.0503083348" lon="-3.0921948353"><ele>361</ele><time>2012-12-29T11:59:38Z</time></trkpt>
<trkpt lat="53.0501663327" lon="-3.0921916644"><ele>364</ele><time>2012-12-29T12:00:00Z</time></trkpt>
<trkpt lat="53.0500346661" lon="-3.0921240012"><ele>366</ele><time>2012-12-29T12:00:20Z</time></trkpt>
<trkpt lat="53.0499734998" lon="-3.0919161638"><ele>368</ele><time>2012-12-29T12:00:37Z</time></trkpt>
<trkpt lat="53.0498485009" lon="-3.0918061654"><ele>369</ele><time>2012-12-29T12:00:49Z</time></trkpt>
<trkpt lat="53.0497123321" lon="-3.0917196671"><ele>370</ele><time>2012-12-29T12:01:02Z</time></trkpt>
<trkpt lat="53.0495830019" lon="-3.0916191657"><ele>370</ele><time>2012-12-29T12:01:13Z</time></trkpt>
<trkpt lat="53.0494563341" lon="-3.0915210009"><ele>371</ele><time>2012-12-29T12:01:24Z</time></trkpt>
<trkpt lat="53.0493258317" lon="-3.0914378325"><ele>371</ele><time>2012-12-29T12:01:35Z</time></trkpt>
<trkpt lat="53.0491990010" lon="-3.0913350026"><ele>370</ele><time>2012-12-29T12:01:47Z</time></trkpt>
<trkpt lat="53.0490875006" lon="-3.0912083308"><ele>368</ele><time>2012-12-29T12:02:06Z</time></trkpt>
<trkpt lat="53.0489733338" lon="-3.0910880009"><ele>365</ele><time>2012-12-29T12:04:24Z</time></trkpt>
<trkpt lat="53.0489364982" lon="-3.0908703327"><ele>363</ele><time>2012-12-29T12:04:41Z</time></trkpt>
<trkpt lat="53.0489076654" lon="-3.0906435013"><ele>360</ele><time>2012-12-29T12:05:01Z</time></trkpt>
<trkpt lat="53.0488536676" lon="-3.0904321671"><ele>356</ele><time>2012-12-29T12:05:16Z</time></trkpt>
<trkpt lat="53.0488241673" lon="-3.0901988347"><ele>355</ele><time>2012-12-29T12:05:30Z</time></trkpt>
<trkpt lat="53.0487583319" lon="-3.0899900039"><ele>353</ele><time>2012-12-29T12:05:44Z</time></trkpt>
<trkpt lat="53.0487186670" lon="-3.0897663355"><ele>350</ele><time>2012-12-29T12:05:57Z</time></trkpt>
<trkpt lat="53.0486481667" lon="-3.0895634969"><ele>348</ele><time>2012-12-29T12:06:10Z</time></trkpt>
<trkpt lat="53.0486466686" lon="-3.0893244982"><ele>345</ele><time>2012-12-29T12:06:28Z</time></trkpt>
<trkpt lat="53.0486463348" lon="-3.0890860001"><ele>342</ele><time>2012-12-29T12:06:40Z</time></trkpt>
<trkpt lat="53.0486568332" lon="-3.0888623317"><ele>340</ele><time>2012-12-29T12:06:52Z</time></trkpt>
<trkpt lat="53.0486513336" lon="-3.0886266629"><ele>337</ele><time>2012-12-29T12:07:06Z</time></trkpt>
<trkpt lat="53.0486086686" lon="-3.0883946657"><ele>336</ele><time>2012-12-29T12:07:45Z</time></trkpt>
<trkpt lat="53.0485381683" lon="-3.0882026672"><ele>335</ele><time>2012-12-29T12:07:58Z</time></trkpt>
<trkpt lat="53.0485068321" lon="-3.0879789988"><ele>334</ele><time>2012-12-29T12:08:10Z</time></trkpt>
<trkpt lat="53.0486234983" lon="-3.0878420035"><ele>330</ele><time>2012-12-29T12:08:38Z</time></trkpt>
<trkpt lat="53.0487436652" lon="-3.0877311627"><ele>328</ele><time>2012-12-29T12:08:59Z</time></trkpt>
<trkpt lat="53.0488699992" lon="-3.0876530011"><ele>326</ele><time>2012-12-29T12:09:15Z</time></trkpt>
<trkpt lat="53.0490030011" lon="-3.0876021703"><ele>322</ele><time>2012-12-29T12:09:51Z</time></trkpt>
<trkpt lat="53.0490858316" lon="-3.0877799988"><ele>320</ele><time>2012-12-29T12:10:28Z</time></trkpt>
<trkpt lat="53.0492264986" lon="-3.0877679984"><ele>318</ele><time>2012-12-29T12:10:49Z</time></trkpt>
<trkpt lat="53.0493169983" lon="-3.0875963370"><ele>317</ele><time>2012-12-29T12:11:24Z</time></trkpt>
<trkpt lat="53.0492920001" lon="-3.0873720010"><ele>316</ele><time>2012-12-29T12:11:38Z</time></trkpt>
<trkpt lat="53.0492846648" lon="-3.0871411641"><ele>314</ele><time>2012-12-29T12:11:52Z</time></trkpt>
<trkpt lat="53.0493151665" lon="-3.0869193316"><ele>311</ele><time>2012-12-29T12:12:06Z</time></trkpt>
<trkpt lat="53.0493353327" lon="-3.0866981665"><ele>307</ele><time>2012-12-29T12:12:56Z</time></trkpt>
<trkpt lat="53.0492914995" lon="-3.0864789963"><ele>306</ele><time>2012-12-29T12:13:35Z</time></trkpt>
<trkpt lat="53.0493163347" lon="-3.0862586657"><ele>305</ele><time>2012-12-29T12:13:55Z</time></trkpt>
<trkpt lat="53.0493206660" lon="-3.0860268354"><ele>303</ele><time>2012-12-29T12:14:12Z</time></trkpt>
<trkpt lat="53.0492836674" lon="-3.0858071645"><ele>303</ele><time>2012-12-29T12:14:29Z</time></trkpt>
<trkpt lat="53.0492701650" lon="-3.0855781635"><ele>302</ele><time>2012-12-29T12:14:42Z</time></trkpt>
<trkpt lat="53.0492059986" lon="-3.0853754997"><ele>301</ele><time>2012-12-29T12:14:55Z</time></trkpt>
<trkpt lat="53.0491191665" lon="-3.0851945003"><ele>299</ele><time>2012-12-29T12:15:10Z</time></trkpt>
<trkpt lat="53.0490066648" lon="-3.0850699981"><ele>298</ele><time>2012-12-29T12:15:21Z</time></trkpt>
<trkpt lat="53.0489241680" lon="-3.0848791679"><ele>297</ele><time>2012-12-29T12:15:32Z</time></trkpt>
<trkpt lat="53.0488215009" lon="-3.0847283363"><ele>296</ele><time>2012-12-29T12:15:44Z</time></trkpt>
<trkpt lat="53.0486815015" lon="-3.0846493324"><ele>296</ele><time>2012-12-29T12:15:57Z</time></trkpt>
<trkpt lat="53.0486358325" lon="-3.0844273329"><ele>295</ele><time>2012-12-29T12:16:08Z</time></trkpt>
<trkpt lat="53.0487169981" lon="-3.0842238347"><ele>294</ele><time>2012-12-29T12:16:18Z</time></trkpt>
<trkpt lat="53.0488456686" lon="-3.0841306686"><ele>294</ele><time>2012-12-29T12:16:29Z</time></trkpt>
<trkpt lat="53.0489891648" lon="-3.0841746648"><ele>292</ele><time>2012-12-29T12:16:43Z</time></trkpt>
<trkpt lat="53.0491011659" lon="-3.0843326648"><ele>291</ele><time>2012-12-29T12:16:57Z</time></trkpt>
<trkpt lat="53.0492400010" lon="-3.0844243368"><ele>290</ele><time>2012-12-29T12:17:08Z</time></trkpt>
<trkpt lat="53.0493866682" lon="-3.0845204989"><ele>289</ele><time>2012-12-29T12:17:18Z</time></trkpt>
<trkpt lat="53.0495273352" lon="-3.0845815023"><ele>288</ele><time>2012-12-29T12:17:32Z</time></trkpt>
<trkpt lat="53.0496676683" lon="-3.0846539974"><ele>288</ele><time>2012-12-29T12:17:45Z</time></trkpt>
<trkpt lat="53.0498056650" lon="-3.0847028335"><ele>287</ele><time>2012-12-29T12:17:56Z</time></trkpt>
<trkpt lat="53.0499535004" lon="-3.0847383340"><ele>285</ele><time>2012-12-29T12:18:09Z</time></trkpt>
<trkpt lat="53.0500858347" lon="-3.0848013322"><ele>283</ele><time>2012-12-29T12:18:21Z</time></trkpt>
<trkpt lat="53.0502009988" lon="-3.0846761703"><ele>278</ele><time>2012-12-29T12:18:37Z</time></trkpt>
<trkpt lat="53.0502643347" lon="-3.0844715039"><ele>269</ele><time>2012-12-29T12:19:09Z</time></trkpt>
<trkpt lat="53.0503668348" lon="-3.0843116681"><ele>263</ele><time>2012-12-29T12:19:41Z</time></trkpt>
<trkpt lat="53.0504158338" lon="-3.0840929985"><ele>260</ele><time>2012-12-29T12:19:58Z</time></trkpt>
<trkpt lat="53.0505076647" lon="-3.0839196682"><ele>258</ele><time>2012-12-29T12:20:10Z</time></trkpt>
<trkpt lat="53.0506368319" lon="-3.0838325024"><ele>256</ele><time>2012-12-29T12:20:22Z</time></trkpt>
<trkpt lat="53.0506399989" lon="-3.0836004972"><ele>252</ele><time>2012-12-29T12:20:38Z</time></trkpt>
<trkpt lat="53.0505515019" lon="-3.0834276676"><ele>249</ele><time>2012-12-29T12:20:53Z</time></trkpt>
<trkpt lat="53.0506024996" lon="-3.0832158327"><ele>247</ele><time>2012-12-29T12:21:05Z</time></trkpt>
<trkpt lat="53.0506470005" lon="-3.0830044985"><ele>245</ele><time>2012-12-29T12:21:17Z</time></trkpt>
<trkpt lat="53.0506253322" lon="-3.0827816645"><ele>243</ele><time>2012-12-29T12:21:27Z</time></trkpt>
<trkpt lat="53.0505411665" lon="-3.0825771650"><ele>241</ele><time>2012-12-29T12:21:39Z</time></trkpt>
<trkpt lat="53.0504711668" lon="-3.0823823373"><ele>239</ele><time>2012-12-29T12:21:52Z</time></trkpt>
<trkpt lat="53.0503889998" lon="-3.0821794987"><ele>238</ele><time>2012-12-29T12:22:02Z</time></trkpt>
<trkpt lat="53.0503251672" lon="-3.0819423358"><ele>237</ele><time>2012-12-29T12:22:12Z</time></trkpt>
<trkpt lat="53.0502735019" lon="-3.0817263365"><ele>235</ele><time>2012-12-29T12:22:23Z</time></trkpt>
<trkpt lat="53.0502123316" lon="-3.0815064987"><ele>233</ele><time>2012-12-29T12:22:35Z</time></trkpt>
<trkpt lat="53.0501701673" lon="-3.0812839985"><ele>232</ele><time>2012-12-29T12:22:47Z</time></trkpt>
<trkpt lat="53.0501173337" lon="-3.0810724974"><ele>231</ele><time>2012-12-29T12:22:58Z</time></trkpt>
<trkpt lat="53.0500554999" lon="-3.0808721701"><ele>230</ele><time>2012-12-29T12:23:10Z</time></trkpt>
<trkpt lat="53.0499618332" lon="-3.0807096640"><ele>229</ele><time>2012-12-29T12:23:23Z</time></trkpt>
<trkpt lat="53.0498781681" lon="-3.0805186669"><ele>228</ele><time>2012-12-29T12:23:36Z</time></trkpt>
<trkpt lat="53.0498346686" lon="-3.0803045034"><ele>228</ele><time>2012-12-29T12:23:47Z</time></trkpt>
<trkpt lat="53.0498118321" lon="-3.0800794999"><ele>227</ele><time>2012-12-29T12:23:58Z</time></trkpt>
<trkpt lat="53.0497870008" lon="-3.0798466682"><ele>223</ele><time>2012-12-29T12:24:29Z</time></trkpt>
<trkpt lat="53.0498383323" lon="-3.0796341658"><ele>221</ele><time>2012-12-29T12:24:42Z</time></trkpt>
<trkpt lat="53.0497648319" lon="-3.0794376691"><ele>220</ele><time>2012-12-29T12:24:54Z</time></trkpt>
<trkpt lat="53.0496513327" lon="-3.0793001652"><ele>219</ele><time>2012-12-29T12:25:06Z</time></trkpt>
<trkpt lat="53.0495436668" lon="-3.0791368326"><ele>218</ele><time>2012-12-29T12:25:18Z</time></trkpt>
<trkpt lat="53.0495199998" lon="-3.0789043347"><ele>218</ele><time>2012-12-29T12:25:30Z</time></trkpt>
<trkpt lat="53.0495418350" lon="-3.0786733309"><ele>217</ele><time>2012-12-29T12:25:42Z</time></trkpt>
<trkpt lat="53.0495675008" lon="-3.0784490029"><ele>216</ele><time>2012-12-29T12:25:54Z</time></trkpt>
<trkpt lat="53.0495991667" lon="-3.0782224973"><ele>216</ele><time>2012-12-29T12:26:06Z</time></trkpt>
<trkpt lat="53.0496303320" lon="-3.0779903332"><ele>215</ele><time>2012-12-29T12:26:17Z</time></trkpt>
<trkpt lat="53.0497083346" lon="-3.0778026660"><ele>215</ele><time>2012-12-29T12:26:32Z</time></trkpt>
<trkpt lat="53.0497713327" lon="-3.0776021640"><ele>214</ele><time>2012-12-29T12:26:47Z</time></trkpt>
<trkpt lat="53.0497935017" lon="-3.0773686647"><ele>214</ele><time>2012-12-29T12:27:00Z</time></trkpt>
<trkpt lat="53.0498178323" lon="-3.0771448294"><ele>213</ele><time>2012-12-29T12:27:13Z</time></trkpt>
<trkpt lat="53.0497636676" lon="-3.0769261678"><ele>210</ele><time>2012-12-29T12:28:56Z</time></trkpt>
<trkpt lat="53.0496856650" lon="-3.0767340024"><ele>210</ele><time>2012-12-29T12:29:07Z</time></trkpt>
<trkpt lat="53.0496129990" lon="-3.0765309970"><ele>210</ele><time>2012-12-29T12:29:19Z</time></trkpt>
<trkpt lat="53.0495453318" lon="-3.0763310035"><ele>209</ele><time>2012-12-29T12:29:31Z</time></trkpt>
<trkpt lat="53.0494696657" lon="-3.0761353334"><ele>209</ele><time>2012-12-29T12:29:43Z</time></trkpt>
<trkpt lat="53.0493946671" lon="-3.0759408315"><ele>208</ele><time>2012-12-29T12:29:55Z</time></trkpt>
<trkpt lat="53.0493158340" lon="-3.0757496675"><ele>207</ele><time>2012-12-29T12:30:07Z</time></trkpt>
<trkpt lat="53.0492351651" lon="-3.0755573352"><ele>207</ele><time>2012-12-29T12:30:19Z</time></trkpt>
<trkpt lat="53.0491641680" lon="-3.0753650030"><ele>206</ele><time>2012-12-29T12:30:34Z</time></trkpt>
<trkpt lat="53.0490656654" lon="-3.0752043327"><ele>206</ele><time>2012-12-29T12:30:46Z</time></trkpt>
<trkpt lat="53.0489629984" lon="-3.0750535011"><ele>205</ele><time>2012-12-29T12:30:58Z</time></trkpt>
<trkpt lat="53.0488443335" lon="-3.0749163310"><ele>204</ele><time>2012-12-29T12:31:10Z</time></trkpt>
<trkpt lat="53.0487245003" lon="-3.0747819980"><ele>204</ele><time>2012-12-29T12:31:24Z</time></trkpt>
<trkpt lat="53.0485978325" lon="-3.0746599992"><ele>204</ele><time>2012-12-29T12:31:37Z</time></trkpt>
<trkpt lat="53.0484713316" lon="-3.0745584965"><ele>202</ele><time>2012-12-29T12:31:56Z</time></trkpt>
<trkpt lat="53.0483554999" lon="-3.0744390011"><ele>202</ele><time>2012-12-29T12:32:12Z</time></trkpt>
<trkpt lat="53.0482404987" lon="-3.0742988348"><ele>201</ele><time>2012-12-29T12:32:27Z</time></trkpt>
<trkpt lat="53.0481206656" lon="-3.0741681655"><ele>201</ele><time>2012-12-29T12:32:44Z</time></trkpt>
<trkpt lat="53.0479910016" lon="-3.0740655025"><ele>200</ele><time>2012-12-29T12:32:58Z</time></trkpt>
<trkpt lat="53.0478646676" lon="-3.0739843369"><ele>200</ele><time>2012-12-29T12:33:11Z</time></trkpt>
<trkpt lat="53.0477318327" lon="-3.0739461660"><ele>200</ele><time>2012-12-29T12:33:25Z</time></trkpt>
<trkpt lat="53.0475868344" lon="-3.0739334981"><ele>200</ele><time>2012-12-29T12:33:44Z</time></trkpt>
<trkpt lat="53.0474515001" lon="-3.0738431692"><ele>199</ele><time>2012-12-29T12:34:01Z</time></trkpt>
<trkpt lat="53.0474038323" lon="-3.0736236652"><ele>199</ele><time>2012-12-29T12:34:14Z</time></trkpt>
<trkpt lat="53.0473456661" lon="-3.0734178305"><ele>198</ele><time>2012-12-29T12:34:29Z</time></trkpt>
<trkpt lat="53.0473039985" lon="-3.0731786648"><ele>197</ele><time>2012-12-29T12:34:42Z</time></trkpt>
<trkpt lat="53.0472836653" lon="-3.0729548295"><ele>196</ele><time>2012-12-29T12:34:55Z</time></trkpt>
<trkpt lat="53.0472429991" lon="-3.0727394978"><ele>194</ele><time>2012-12-29T12:35:07Z</time></trkpt>
<trkpt lat="53.0472238342" lon="-3.0725118319"><ele>193</ele><time>2012-12-29T12:35:20Z</time></trkpt>
<trkpt lat="53.0472033342" lon="-3.0722791672"><ele>192</ele><time>2012-12-29T12:35:33Z</time></trkpt>
<trkpt lat="53.0471395016" lon="-3.0720805009"><ele>191</ele><time>2012-12-29T12:35:46Z</time></trkpt>
<trkpt lat="53.0470538338" lon="-3.0719048341"><ele>190</ele><time>2012-12-29T12:36:01Z</time></trkpt>
<trkpt lat="53.0469610016" lon="-3.0717126687"><ele>189</ele><time>2012-12-29T12:36:15Z</time></trkpt>
<trkpt lat="53.0468831658" lon="-3.0714938323"><ele>189</ele><time>2012-12-29T12:36:25Z</time></trkpt>
<trkpt lat="53.0467658321" lon="-3.0713578304"><ele>188</ele><time>2012-12-29T12:36:41Z</time></trkpt>
<trkpt lat="53.0467270017" lon="-3.0711435000"><ele>188</ele><time>2012-12-29T12:36:55Z</time></trkpt>
<trkpt lat="53.0465956648" lon="-3.0710930030"><ele>187</ele><time>2012-12-29T12:37:10Z</time></trkpt>
<trkpt lat="53.0464580019" lon="-3.0710680008"><ele>187</ele><time>2012-12-29T12:37:22Z</time></trkpt>
<trkpt lat="53.0463251670" lon="-3.0709884961"><ele>186</ele><time>2012-12-29T12:37:34Z</time></trkpt>
<trkpt lat="53.0461826682" lon="-3.0709486643"><ele>186</ele><time>2012-12-29T12:37:46Z</time></trkpt>
<trkpt lat="53.0460473339" lon="-3.0709175030"><ele>186</ele><time>2012-12-29T12:37:56Z</time></trkpt>
<trkpt lat="53.0459229986" lon="-3.0708216667"><ele>185</ele><time>2012-12-29T12:38:13Z</time></trkpt>
<trkpt lat="53.0458691676" lon="-3.0706034978"><ele>184</ele><time>2012-12-29T12:38:33Z</time></trkpt>
<trkpt lat="53.0458461682" lon="-3.0703785022"><ele>184</ele><time>2012-12-29T12:38:45Z</time></trkpt>
<trkpt lat="53.0457966685" lon="-3.0701510032"><ele>184</ele><time>2012-12-29T12:38:56Z</time></trkpt>
<trkpt lat="53.0457143346" lon="-3.0699736675"><ele>183</ele><time>2012-12-29T12:39:08Z</time></trkpt>
<trkpt lat="53.0456124981" lon="-3.0698088328"><ele>183</ele><time>2012-12-29T12:39:18Z</time></trkpt>
<trkpt lat="53.0454881668" lon="-3.0697143316"><ele>183</ele><time>2012-12-29T12:39:34Z</time></trkpt>
<trkpt lat="53.0453220010" lon="-3.0696865002"><ele>182</ele><time>2012-12-29T12:39:48Z</time></trkpt>
<trkpt lat="53.0452178319" lon="-3.0695355018"><ele>181</ele><time>2012-12-29T12:40:03Z</time></trkpt>
<trkpt lat="53.0451551676" lon="-3.0693191687"><ele>179</ele><time>2012-12-29T12:40:18Z</time></trkpt>
<trkpt lat="53.0451968352" lon="-3.0691030025"><ele>178</ele><time>2012-12-29T12:40:36Z</time></trkpt>
<trkpt lat="53.0453108350" lon="-3.0689603329"><ele>178</ele><time>2012-12-29T12:40:50Z</time></trkpt>
<trkpt lat="53.0452028314" lon="-3.0687783321"><ele>175</ele><time>2012-12-29T12:41:02Z</time></trkpt>
<trkpt lat="53.0451225003" lon="-3.0685971657"><ele>175</ele><time>2012-12-29T12:41:16Z</time></trkpt>
<trkpt lat="53.0449903329" lon="-3.0685403347"><ele>175</ele><time>2012-12-29T12:41:36Z</time></trkpt>
<trkpt lat="53.0449770013" lon="-3.0683071693"><ele>176</ele><time>2012-12-29T12:41:50Z</time></trkpt>
<trkpt lat="53.0448966662" lon="-3.0681018353"><ele>176</ele><time>2012-12-29T12:42:00Z</time></trkpt>
<trkpt lat="53.0448491653" lon="-3.0678718328"><ele>176</ele><time>2012-12-29T12:42:17Z</time></trkpt>
<trkpt lat="53.0448123336" lon="-3.0676503340"><ele>176</ele><time>2012-12-29T12:42:35Z</time></trkpt>
<trkpt lat="53.0447418332" lon="-3.0674441655"><ele>176</ele><time>2012-12-29T12:42:46Z</time></trkpt>
<trkpt lat="53.0446961681" lon="-3.0672230005"><ele>175</ele><time>2012-12-29T12:42:59Z</time></trkpt>
<trkpt lat="53.0447393338" lon="-3.0669989983"><ele>176</ele><time>2012-12-29T12:43:11Z</time></trkpt>
<trkpt lat="53.0447223345" lon="-3.0667721669"><ele>176</ele><time>2012-12-29T12:43:28Z</time></trkpt>
<trkpt lat="53.0447225014" lon="-3.0665380001"><ele>175</ele><time>2012-12-29T12:43:42Z</time></trkpt>
<trkpt lat="53.0447221677" lon="-3.0662991683"><ele>175</ele><time>2012-12-29T12:43:55Z</time></trkpt>
<trkpt lat="53.0447503328" lon="-3.0660786668"><ele>175</ele><time>2012-12-29T12:44:16Z</time></trkpt>
<trkpt lat="53.0447613319" lon="-3.0658531666"><ele>175</ele><time>2012-12-29T12:44:28Z</time></trkpt>
<trkpt lat="53.0447216670" lon="-3.0656370004"><ele>174</ele><time>2012-12-29T12:44:45Z</time></trkpt>
<trkpt lat="53.0447258313" lon="-3.0654044986"><ele>174</ele><time>2012-12-29T12:45:03Z</time></trkpt>
<trkpt lat="53.0446414987" lon="-3.0651986678"><ele>174</ele><time>2012-12-29T12:45:14Z</time></trkpt>
<trkpt lat="53.0445901672" lon="-3.0649858316"><ele>174</ele><time>2012-12-29T12:45:26Z</time></trkpt>
<trkpt lat="53.0445178350" lon="-3.0647946676"><ele>173</ele><time>2012-12-29T12:45:38Z</time></trkpt>
<trkpt lat="53.0444583337" lon="-3.0645728350"><ele>173</ele><time>2012-12-29T12:45:50Z</time></trkpt>
<trkpt lat="53.0444010019" lon="-3.0643543323"><ele>172</ele><time>2012-12-29T12:46:03Z</time></trkpt>
<trkpt lat="53.0443100015" lon="-3.0641843319"><ele>172</ele><time>2012-12-29T12:46:15Z</time></trkpt>
<trkpt lat="53.0442236662" lon="-3.0640048345"><ele>171</ele><time>2012-12-29T12:46:30Z</time></trkpt>
<trkpt lat="53.0440870007" lon="-3.0639783343"><ele>171</ele><time>2012-12-29T12:46:46Z</time></trkpt>
<trkpt lat="53.0439968348" lon="-3.0638098319"><ele>170</ele><time>2012-12-29T12:47:06Z</time></trkpt>
<trkpt lat="53.0439171672" lon="-3.0636043350"><ele>170</ele><time>2012-12-29T12:47:26Z</time></trkpt>
<trkpt lat="53.0438265006" lon="-3.0634154995"><ele>169</ele><time>2012-12-29T12:47:42Z</time></trkpt>
<trkpt lat="53.0437883337" lon="-3.0631989996"><ele>169</ele><time>2012-12-29T12:47:56Z</time></trkpt>
<trkpt lat="53.0436989983" lon="-3.0630075018"><ele>168</ele><time>2012-12-29T12:48:07Z</time></trkpt>
<trkpt lat="53.0435766657" lon="-3.0628425002"><ele>168</ele><time>2012-12-29T12:48:17Z</time></trkpt>
<trkpt lat="53.0434618314" lon="-3.0627088348"><ele>167</ele><time>2012-12-29T12:48:29Z</time></trkpt>
<trkpt lat="53.0433760007" lon="-3.0625224988"><ele>167</ele><time>2012-12-29T12:48:45Z</time></trkpt>
<trkpt lat="53.0433488329" lon="-3.0622725010"><ele>165</ele><time>2012-12-29T12:48:55Z</time></trkpt>
<trkpt lat="53.0433376670" lon="-3.0620271683"><ele>165</ele><time>2012-12-29T12:49:07Z</time></trkpt>
<trkpt lat="53.0433433334" lon="-3.0617976665"><ele>162</ele><time>2012-12-29T12:49:26Z</time></trkpt>
<trkpt lat="53.0433393319" lon="-3.0615651647"><ele>157</ele><time>2012-12-29T12:50:01Z</time></trkpt>
<trkpt lat="53.0433308323" lon="-3.0613378326"><ele>157</ele><time>2012-12-29T12:50:17Z</time></trkpt>
<trkpt lat="53.0432693322" lon="-3.0615928332"><time>2012-12-29T12:52:38Z</time></trkpt>
<trkpt lat="53.0433859984" lon="-3.0613111655"><ele>157</ele><time>2012-12-29T12:52:48Z</time></trkpt>
<trkpt lat="53.0432686687" lon="-3.0614326676"><ele>157</ele><time>2012-12-29T12:52:58Z</time></trkpt>
<trkpt lat="53.0432825009" lon="-3.0616671681"><ele>158</ele><time>2012-12-29T12:53:22Z</time></trkpt>
<trkpt lat="53.0431401650" lon="-3.0617136677"><ele>158</ele><time>2012-12-29T12:53:55Z</time></trkpt>
<trkpt lat="53.0432749987" lon="-3.0617161671"><ele>159</ele><time>2012-12-29T12:54:39Z</time></trkpt>
<trkpt lat="53.0433284998" lon="-3.0614970009"><ele>161</ele><time>2012-12-29T12:55:11Z</time></trkpt>
<trkpt lat="53.0432333350" lon="-3.0616851648"><ele>163</ele><time>2012-12-29T12:55:53Z</time></trkpt>
<trkpt lat="53.0430968324" lon="-3.0616808335"><ele>165</ele><time>2012-12-29T12:56:23Z</time></trkpt>
<trkpt lat="53.0432401657" lon="-3.0616298318"><ele>165</ele><time>2012-12-29T12:56:46Z</time></trkpt>
<trkpt lat="53.0435340007" lon="-3.0616170009"><ele>166</ele><time>2012-12-29T12:56:56Z</time></trkpt>
<trkpt lat="53.0433949987" lon="-3.0616601666"><ele>166</ele><time>2012-12-29T12:57:10Z</time></trkpt>
<trkpt lat="53.0430461685" lon="-3.0617478331"><ele>167</ele><time>2012-12-29T12:57:20Z</time></trkpt>
<trkpt lat="53.0431793332" lon="-3.0616520007"><ele>167</ele><time>2012-12-29T12:57:35Z</time></trkpt>
<trkpt lat="53.0430418332" lon="-3.0616730014"><ele>167</ele><time>2012-12-29T13:02:45Z</time></trkpt>
<trkpt lat="53.0431703329" lon="-3.0615988334"><ele>167</ele><time>2012-12-29T13:03:13Z</time></trkpt>
<trkpt lat="53.0430483341" lon="-3.0614718318"><ele>167</ele><time>2012-12-29T13:03:29Z</time></trkpt>
<trkpt lat="53.0430329998" lon="-3.0612493316"><ele>168</ele><time>2012-12-29T13:03:47Z</time></trkpt>
<trkpt lat="53.0431236664" lon="-3.0614645004"><ele>169</ele><time>2012-12-29T13:03:57Z</time></trkpt>
<trkpt lat="53.0431023320" lon="-3.0612428347"><ele>172</ele><time>2012-12-29T13:05:19Z</time></trkpt>
<trkpt lat="53.0430731654" lon="-3.0614833315"><ele>174</ele><time>2012-12-29T13:05:48Z</time></trkpt>
<trkpt lat="53.0432030002" lon="-3.0615624984"><ele>168</ele><time>2012-12-29T13:08:20Z</time></trkpt>
<trkpt lat="53.0433198333" lon="-3.0616854986"><ele>171</ele><time>2012-12-29T13:11:10Z</time></trkpt>
<trkpt lat="53.0431863348" lon="-3.0616106669"><ele>171</ele><time>2012-12-29T13:11:41Z</time></trkpt>
<trkpt lat="53.0432928324" lon="-3.0614621679"><ele>170</ele><time>2012-12-29T13:12:27Z</time></trkpt>
<trkpt lat="53.0432044983" lon="-3.0612920006"><ele>161</ele><time>2012-12-29T13:14:46Z</time></trkpt>
<trkpt lat="53.0432634989" lon="-3.0610741655"><ele>153</ele><time>2012-12-29T13:17:31Z</time></trkpt>
<trkpt lat="53.0432508349" lon="-3.0608466665"><ele>154</ele><time>2012-12-29T13:17:45Z</time></trkpt>
<trkpt lat="53.0432053328" lon="-3.0606259982"><ele>156</ele><time>2012-12-29T13:18:01Z</time></trkpt>
<trkpt lat="53.0432121674" lon="-3.0603933334"><ele>159</ele><time>2012-12-29T13:18:14Z</time></trkpt>
<trkpt lat="53.0431466659" lon="-3.0601911664"><ele>160</ele><time>2012-12-29T13:18:29Z</time></trkpt>
<trkpt lat="53.0430493315" lon="-3.0600291650"><ele>157</ele><time>2012-12-29T13:18:39Z</time></trkpt>
<trkpt lat="53.0429856658" lon="-3.0598318338"><ele>161</ele><time>2012-12-29T13:18:55Z</time></trkpt>
<trkpt lat="53.0428983331" lon="-3.0596515020"><ele>162</ele><time>2012-12-29T13:19:08Z</time></trkpt>
<trkpt lat="53.0428438346" lon="-3.0594226678"><ele>161</ele><time>2012-12-29T13:19:22Z</time></trkpt>
<trkpt lat="53.0427995006" lon="-3.0591963331"><ele>160</ele><time>2012-12-29T13:19:41Z</time></trkpt>
<trkpt lat="53.0427043319" lon="-3.0590300004"><ele>160</ele><time>2012-12-29T13:19:53Z</time></trkpt>
<trkpt lat="53.0425789992" lon="-3.0589366674"><ele>160</ele><time>2012-12-29T13:20:03Z</time></trkpt>
<trkpt lat="53.0427028338" lon="-3.0590538343"><ele>161</ele><time>2012-12-29T13:21:09Z</time></trkpt>
<trkpt lat="53.0426763336" lon="-3.0588255008"><ele>164</ele><time>2012-12-29T13:22:12Z</time></trkpt>
<trkpt lat="53.0426369985" lon="-3.0586019993"><ele>164</ele><time>2012-12-29T13:22:26Z</time></trkpt>
<trkpt lat="53.0426019986" lon="-3.0583783348"><ele>164</ele><time>2012-12-29T13:22:39Z</time></trkpt>
<trkpt lat="53.0424876650" lon="-3.0582476656"><ele>163</ele><time>2012-12-29T13:22:57Z</time></trkpt>
<trkpt lat="53.0423631668" lon="-3.0581248323"><ele>163</ele><time>2012-12-29T13:23:08Z</time></trkpt>
<trkpt lat="53.0422350009" lon="-3.0579989990"><ele>163</ele><time>2012-12-29T13:23:18Z</time></trkpt>
<trkpt lat="53.0421120008" lon="-3.0578800003"><ele>163</ele><time>2012-12-29T13:23:29Z</time></trkpt>
<trkpt lat="53.0419665019" lon="-3.0578258316"><ele>162</ele><time>2012-12-29T13:23:39Z</time></trkpt>
<trkpt lat="53.0418234984" lon="-3.0577389995"><ele>162</ele><time>2012-12-29T13:23:50Z</time></trkpt>
<trkpt lat="53.0416990002" lon="-3.0576203346"><ele>162</ele><time>2012-12-29T13:24:00Z</time></trkpt>
<trkpt lat="53.0415836652" lon="-3.0574995001"><ele>161</ele><time>2012-12-29T13:24:10Z</time></trkpt>
<trkpt lat="53.0415451686" lon="-3.0572800001"><ele>161</ele><time>2012-12-29T13:24:22Z</time></trkpt>
<trkpt lat="53.0414966663" lon="-3.0570703348"><ele>160</ele><time>2012-12-29T13:24:32Z</time></trkpt>
<trkpt lat="53.0414521654" lon="-3.0568560004"><ele>160</ele><time>2012-12-29T13:24:42Z</time></trkpt>
<trkpt lat="53.0413948337" lon="-3.0566321651"><ele>159</ele><time>2012-12-29T13:24:52Z</time></trkpt>
<trkpt lat="53.0413113316" lon="-3.0564196666"><ele>159</ele><time>2012-12-29T13:25:02Z</time></trkpt>
<trkpt lat="53.0412858327" lon="-3.0561956684"><ele>158</ele><time>2012-12-29T13:25:13Z</time></trkpt>
<trkpt lat="53.0412364999" lon="-3.0559853315"><ele>158</ele><time>2012-12-29T13:25:23Z</time></trkpt>
<trkpt lat="53.0411538323" lon="-3.0558038314"><ele>158</ele><time>2012-12-29T13:25:35Z</time></trkpt>
<trkpt lat="53.0410613338" lon="-3.0556390007"><ele>158</ele><time>2012-12-29T13:25:48Z</time></trkpt>
<trkpt lat="53.0409413338" lon="-3.0555131674"><ele>157</ele><time>2012-12-29T13:25:58Z</time></trkpt>
<trkpt lat="53.0408529997" lon="-3.0553253333"><ele>156</ele><time>2012-12-29T13:26:11Z</time></trkpt>
<trkpt lat="53.0407613317" lon="-3.0551256657"><ele>156</ele><time>2012-12-29T13:26:21Z</time></trkpt>
<trkpt lat="53.0406898340" lon="-3.0549331665"><ele>155</ele><time>2012-12-29T13:26:32Z</time></trkpt>
<trkpt lat="53.0406763315" lon="-3.0547071656"><ele>156</ele><time>2012-12-29T13:26:44Z</time></trkpt>
<trkpt lat="53.0406790018" lon="-3.0544819991"><ele>155</ele><time>2012-12-29T13:26:55Z</time></trkpt>
<trkpt lat="53.0406555017" lon="-3.0542556683"><ele>155</ele><time>2012-12-29T13:27:08Z</time></trkpt>
<trkpt lat="53.0406321685" lon="-3.0540238341"><ele>155</ele><time>2012-12-29T13:27:21Z</time></trkpt>
<trkpt lat="53.0406176686" lon="-3.0537965020"><ele>154</ele><time>2012-12-29T13:27:33Z</time></trkpt>
<trkpt lat="53.0405293345" lon="-3.0536134998"><ele>154</ele><time>2012-12-29T13:27:49Z</time></trkpt>
<trkpt lat="53.0404081662" lon="-3.0535116673"><ele>154</ele><time>2012-12-29T13:28:01Z</time></trkpt>
<trkpt lat="53.0403005004" lon="-3.0533630013"><ele>154</ele><time>2012-12-29T13:28:15Z</time></trkpt>
<trkpt lat="53.0402143319" lon="-3.0531883319"><ele>153</ele><time>2012-12-29T13:28:26Z</time></trkpt>
<trkpt lat="53.0401156664" lon="-3.0530186653"><ele>153</ele><time>2012-12-29T13:28:39Z</time></trkpt>
<trkpt lat="53.0400375009" lon="-3.0528144995"><ele>153</ele><time>2012-12-29T13:28:51Z</time></trkpt>
<trkpt lat="53.0399501681" lon="-3.0526398341"><ele>152</ele><time>2012-12-29T13:29:03Z</time></trkpt>
<trkpt lat="53.0398863316" lon="-3.0524411678"><ele>152</ele><time>2012-12-29T13:29:19Z</time></trkpt>
<trkpt lat="53.0397595008" lon="-3.0523366650"><ele>152</ele><time>2012-12-29T13:29:32Z</time></trkpt>
<trkpt lat="53.0396358331" lon="-3.0522148331"><ele>152</ele><time>2012-12-29T13:29:45Z</time></trkpt>
<trkpt lat="53.0395143350" lon="-3.0521111647"><ele>151</ele><time>2012-12-29T13:29:57Z</time></trkpt>
<trkpt lat="53.0394004981" lon="-3.0519705017"><ele>151</ele><time>2012-12-29T13:30:13Z</time></trkpt>
<trkpt lat="53.0392793338" lon="-3.0518551668"><ele>151</ele><time>2012-12-29T13:30:25Z</time></trkpt>
<trkpt lat="53.0391798337" lon="-3.0517005006"><ele>151</ele><time>2012-12-29T13:30:37Z</time></trkpt>
<trkpt lat="53.0390613317" lon="-3.0515826662"><ele>150</ele><time>2012-12-29T13:30:47Z</time></trkpt>
<trkpt lat="53.0389431675" lon="-3.0514504989"><ele>150</ele><time>2012-12-29T13:31:02Z</time></trkpt>
<trkpt lat="53.0388205012" lon="-3.0513240019"><ele>150</ele><time>2012-12-29T13:31:12Z</time></trkpt>
<trkpt lat="53.0387438337" lon="-3.0511360010"><ele>149</ele><time>2012-12-29T13:31:24Z</time></trkpt>
<trkpt lat="53.0386656682" lon="-3.0509508332"><ele>149</ele><time>2012-12-29T13:31:40Z</time></trkpt>
<trkpt lat="53.0386245012" lon="-3.0507283330"><ele>148</ele><time>2012-12-29T13:31:56Z</time></trkpt>
<trkpt lat="53.0385351658" lon="-3.0505445004"><ele>148</ele><time>2012-12-29T13:32:08Z</time></trkpt>
<trkpt lat="53.0385026654" lon="-3.0503261685"><ele>148</ele><time>2012-12-29T13:32:22Z</time></trkpt>
<trkpt lat="53.0385063330" lon="-3.0500921686"><ele>148</ele><time>2012-12-29T13:32:33Z</time></trkpt>
<trkpt lat="53.0385229985" lon="-3.0498630007"><ele>148</ele><time>2012-12-29T13:32:44Z</time></trkpt>
<trkpt lat="53.0385188341" lon="-3.0496383349"><ele>148</ele><time>2012-12-29T13:32:55Z</time></trkpt>
<trkpt lat="53.0384715001" lon="-3.0494083325"><ele>146</ele><time>2012-12-29T13:33:06Z</time></trkpt>
<trkpt lat="53.0383521676" lon="-3.0492871682"><ele>145</ele><time>2012-12-29T13:33:18Z</time></trkpt>
<trkpt lat="53.0383061647" lon="-3.0490718325"><ele>144</ele><time>2012-12-29T13:33:28Z</time></trkpt>
<trkpt lat="53.0383460005" lon="-3.0488503337"><ele>143</ele><time>2012-12-29T13:33:41Z</time></trkpt>
<trkpt lat="53.0383769989" lon="-3.0486225009"><ele>143</ele><time>2012-12-29T13:33:53Z</time></trkpt>
<trkpt lat="53.0384273330" lon="-3.0483924985"><ele>143</ele><time>2012-12-29T13:34:05Z</time></trkpt>
<trkpt lat="53.0384329995" lon="-3.0481506666"><ele>142</ele><time>2012-12-29T13:34:17Z</time></trkpt>
<trkpt lat="53.0384715001" lon="-3.0479263345"><ele>141</ele><time>2012-12-29T13:34:29Z</time></trkpt>
<trkpt lat="53.0385388335" lon="-3.0477228324"><ele>140</ele><time>2012-12-29T13:34:40Z</time></trkpt>
<trkpt lat="53.0386126677" lon="-3.0475356658"><ele>140</ele><time>2012-12-29T13:34:58Z</time></trkpt>
<trkpt lat="53.0386316657" lon="-3.0472943346"><ele>139</ele><time>2012-12-29T13:35:12Z</time></trkpt>
<trkpt lat="53.0386450013" lon="-3.0470628341"><ele>139</ele><time>2012-12-29T13:35:26Z</time></trkpt>
<trkpt lat="53.0386874994" lon="-3.0468295018"><ele>138</ele><time>2012-12-29T13:35:40Z</time></trkpt>
<trkpt lat="53.0387063344" lon="-3.0465901653"><ele>138</ele><time>2012-12-29T13:35:59Z</time></trkpt>
<trkpt lat="53.0387180010" lon="-3.0463528315"><ele>138</ele><time>2012-12-29T13:36:10Z</time></trkpt>
<trkpt lat="53.0387273351" lon="-3.0461178343"><ele>138</ele><time>2012-12-29T13:36:23Z</time></trkpt>
<trkpt lat="53.0387373328" lon="-3.0458745003"><ele>138</ele><time>2012-12-29T13:36:36Z</time></trkpt>
<trkpt lat="53.0387278318" lon="-3.0456506650"><ele>137</ele><time>2012-12-29T13:36:49Z</time></trkpt>
<trkpt lat="53.0386993329" lon="-3.0454121669"><ele>137</ele><time>2012-12-29T13:37:00Z</time></trkpt>
<trkpt lat="53.0386885007" lon="-3.0451818347"><ele>137</ele><time>2012-12-29T13:37:10Z</time></trkpt>
<trkpt lat="53.0386281649" lon="-3.0449729999"><ele>136</ele><time>2012-12-29T13:37:21Z</time></trkpt>
<trkpt lat="53.0385373314" lon="-3.0447836677"><ele>136</ele><time>2012-12-29T13:37:33Z</time></trkpt>
<trkpt lat="53.0384149988" lon="-3.0446630001"><ele>136</ele><time>2012-12-29T13:37:47Z</time></trkpt>
<trkpt lat="53.0383141677" lon="-3.0445108334"><ele>136</ele><time>2012-12-29T13:37:59Z</time></trkpt>
<trkpt lat="53.0381959995" lon="-3.0443681677"><ele>135</ele><time>2012-12-29T13:38:14Z</time></trkpt>
<trkpt lat="53.0381401658" lon="-3.0441576680"><ele>133</ele><time>2012-12-29T13:38:27Z</time></trkpt>
<trkpt lat="53.0381161650" lon="-3.0439208349"><ele>132</ele><time>2012-12-29T13:38:39Z</time></trkpt>
<trkpt lat="53.0381096681" lon="-3.0436963320"><ele>132</ele><time>2012-12-29T13:38:51Z</time></trkpt>
<trkpt lat="53.0381023328" lon="-3.0434581677"><ele>132</ele><time>2012-12-29T13:39:06Z</time></trkpt>
<trkpt lat="53.0380735000" lon="-3.0432301680"><ele>132</ele><time>2012-12-29T13:39:21Z</time></trkpt>
<trkpt lat="53.0380988320" lon="-3.0429606676"><ele>131</ele><time>2012-12-29T13:39:31Z</time></trkpt>
<trkpt lat="53.0379921675" lon="-3.0428200006"><ele>130</ele><time>2012-12-29T13:39:41Z</time></trkpt>
<trkpt lat="53.0379548351" lon="-3.0425956686"><ele>129</ele><time>2012-12-29T13:39:54Z</time></trkpt>
<trkpt lat="53.0379318317" lon="-3.0423741659"><ele>129</ele><time>2012-12-29T13:40:08Z</time></trkpt>
<trkpt lat="53.0379655004" lon="-3.0421500007"><ele>128</ele><time>2012-12-29T13:40:21Z</time></trkpt>
<trkpt lat="53.0379319986" lon="-3.0419321656"><ele>128</ele><time>2012-12-29T13:40:36Z</time></trkpt>
<trkpt lat="53.0378780007" lon="-3.0417191664"><ele>128</ele><time>2012-12-29T13:40:50Z</time></trkpt>
<trkpt lat="53.0378411651" lon="-3.0415006677"><ele>128</ele><time>2012-12-29T13:41:03Z</time></trkpt>
<trkpt lat="53.0377739986" lon="-3.0412996650"><ele>128</ele><time>2012-12-29T13:41:18Z</time></trkpt>
<trkpt lat="53.0376793345" lon="-3.0411131660"><ele>128</ele><time>2012-12-29T13:41:29Z</time></trkpt>
<trkpt lat="53.0375806650" lon="-3.0409540017"><ele>127</ele><time>2012-12-29T13:41:40Z</time></trkpt>
<trkpt lat="53.0374763330" lon="-3.0407856663"><ele>126</ele><time>2012-12-29T13:41:52Z</time></trkpt>
<trkpt lat="53.0373554985" lon="-3.0406756679"><ele>125</ele><time>2012-12-29T13:42:06Z</time></trkpt>
<trkpt lat="53.0373111685" lon="-3.0404553334"><ele>125</ele><time>2012-12-29T13:42:19Z</time></trkpt>
<trkpt lat="53.0372025013" lon="-3.0403021653"><ele>125</ele><time>2012-12-29T13:42:36Z</time></trkpt>
<trkpt lat="53.0371126652" lon="-3.0401308338"><ele>124</ele><time>2012-12-29T13:42:50Z</time></trkpt>
<trkpt lat="53.0370806654" lon="-3.0399006685"><ele>124</ele><time>2012-12-29T13:43:02Z</time></trkpt>
<trkpt lat="53.0371180018" lon="-3.0396761656"><ele>123</ele><time>2012-12-29T13:43:16Z</time></trkpt>
<trkpt lat="53.0371863325" lon="-3.0394778331"><ele>123</ele><time>2012-12-29T13:43:35Z</time></trkpt>
<trkpt lat="53.0372649988" lon="-3.0392881672"><ele>120</ele><time>2012-12-29T13:44:08Z</time></trkpt>
<trkpt lat="53.0371326685" lon="-3.0392194986"><ele>120</ele><time>2012-12-29T13:44:41Z</time></trkpt>
<trkpt lat="53.0369926651" lon="-3.0392060002"><ele>121</ele><time>2012-12-29T13:44:51Z</time></trkpt>
<trkpt lat="53.0370933334" lon="-3.0390533328"><ele>124</ele><time>2012-12-29T13:46:44Z</time></trkpt>
<trkpt lat="53.0369853338" lon="-3.0389128327"><ele>125</ele><time>2012-12-29T13:47:14Z</time></trkpt>
<trkpt lat="53.0369825006" lon="-3.0386828343"><ele>123</ele><time>2012-12-29T13:48:08Z</time></trkpt>
<trkpt lat="53.0369578322" lon="-3.0384628336"><ele>122</ele><time>2012-12-29T13:48:23Z</time></trkpt>
<trkpt lat="53.0368596673" lon="-3.0383051674"><ele>123</ele><time>2012-12-29T13:48:38Z</time></trkpt>
<trkpt lat="53.0368228316" lon="-3.0380833348"><ele>122</ele><time>2012-12-29T13:48:51Z</time></trkpt>
<trkpt lat="53.0367676655" lon="-3.0378773332"><ele>122</ele><time>2012-12-29T13:49:05Z</time></trkpt>
<trkpt lat="53.0366538326" lon="-3.0377419988"><ele>121</ele><time>2012-12-29T13:49:19Z</time></trkpt>
<trkpt lat="53.0365413348" lon="-3.0376081665"><ele>121</ele><time>2012-12-29T13:49:44Z</time></trkpt>
<trkpt lat="53.0364735007" lon="-3.0378028353"><ele>109</ele><time>2012-12-29T13:53:11Z</time></trkpt>
<trkpt lat="53.0365663330" lon="-3.0379871686"><ele>108</ele><time>2012-12-29T13:53:22Z</time></trkpt>
<trkpt lat="53.0366546671" lon="-3.0381633321"><ele>107</ele><time>2012-12-29T13:53:33Z</time></trkpt>
<trkpt lat="53.0367001653" lon="-3.0383823315"><ele>107</ele><time>2012-12-29T13:53:46Z</time></trkpt>
<trkpt lat="53.0367638350" lon="-3.0385959983"><ele>106</ele><time>2012-12-29T13:53:59Z</time></trkpt>
<trkpt lat="53.0367674987" lon="-3.0388355017"><ele>106</ele><time>2012-12-29T13:54:09Z</time></trkpt>
<trkpt lat="53.0368365010" lon="-3.0390278339"><ele>107</ele><time>2012-12-29T13:54:22Z</time></trkpt>
<trkpt lat="53.0368268331" lon="-3.0392593344"><ele>109</ele><time>2012-12-29T13:54:36Z</time></trkpt>
<trkpt lat="53.0368433317" lon="-3.0394931674"><ele>110</ele><time>2012-12-29T13:54:50Z</time></trkpt>
<trkpt lat="53.0368888338" lon="-3.0397135019"><ele>110</ele><time>2012-12-29T13:55:04Z</time></trkpt>
<trkpt lat="53.0369001667" lon="-3.0399441679"><ele>110</ele><time>2012-12-29T13:55:17Z</time></trkpt>
<trkpt lat="53.0368989984" lon="-3.0401766658"><ele>109</ele><time>2012-12-29T13:55:30Z</time></trkpt>
<trkpt lat="53.0369295001" lon="-3.0404201667"><ele>109</ele><time>2012-12-29T13:55:42Z</time></trkpt>
<trkpt lat="53.0369185011" lon="-3.0406539996"><ele>108</ele><time>2012-12-29T13:55:58Z</time></trkpt>
<trkpt lat="53.0369573315" lon="-3.0408800006"><ele>108</ele><time>2012-12-29T13:56:09Z</time></trkpt>
<trkpt lat="53.0369381666" lon="-3.0411146681"><ele>108</ele><time>2012-12-29T13:56:23Z</time></trkpt>
<trkpt lat="53.0369758328" lon="-3.0413313349"><ele>109</ele><time>2012-12-29T13:56:36Z</time></trkpt>
<trkpt lat="53.0370296677" lon="-3.0415371656"><ele>109</ele><time>2012-12-29T13:56:49Z</time></trkpt>
<trkpt lat="53.0371465007" lon="-3.0416591684"><ele>109</ele><time>2012-12-29T13:57:06Z</time></trkpt>
<trkpt lat="53.0372418324" lon="-3.0418204983"><ele>109</ele><time>2012-12-29T13:57:23Z</time></trkpt>
<trkpt lat="53.0373556654" lon="-3.0419630011"><ele>109</ele><time>2012-12-29T13:57:37Z</time></trkpt>
<trkpt lat="53.0374586662" lon="-3.0421348333"><ele>110</ele><time>2012-12-29T13:57:48Z</time></trkpt>
<trkpt lat="53.0375683347" lon="-3.0422910015"><ele>110</ele><time>2012-12-29T13:57:58Z</time></trkpt>
<trkpt lat="53.0376290003" lon="-3.0424994985"><ele>112</ele><time>2012-12-29T13:58:11Z</time></trkpt>
<trkpt lat="53.0377006650" lon="-3.0426891685"><ele>113</ele><time>2012-12-29T13:58:23Z</time></trkpt>
<trkpt lat="53.0377668341" lon="-3.0428841670"><ele>112</ele><time>2012-12-29T13:58:34Z</time></trkpt>
<trkpt lat="53.0377296686" lon="-3.0430991650"><ele>112</ele><time>2012-12-29T13:58:46Z</time></trkpt>
<trkpt lat="53.0377025008" lon="-3.0433241685"><ele>113</ele><time>2012-12-29T13:59:02Z</time></trkpt>
<trkpt lat="53.0376684984" lon="-3.0435533325"><ele>113</ele><time>2012-12-29T13:59:15Z</time></trkpt>
<trkpt lat="53.0376843333" lon="-3.0437791665"><ele>114</ele><time>2012-12-29T13:59:28Z</time></trkpt>
<trkpt lat="53.0376113335" lon="-3.0440361659"><ele>114</ele><time>2012-12-29T13:59:38Z</time></trkpt>
<trkpt lat="53.0375793338" lon="-3.0442613324"><ele>114</ele><time>2012-12-29T13:59:48Z</time></trkpt>
<trkpt lat="53.0375608325" lon="-3.0445006649"><ele>114</ele><time>2012-12-29T14:00:00Z</time></trkpt>
<trkpt lat="53.0375403325" lon="-3.0447348317"><ele>114</ele><time>2012-12-29T14:00:12Z</time></trkpt>
<trkpt lat="53.0374939998" lon="-3.0449693322"><ele>114</ele><time>2012-12-29T14:00:24Z</time></trkpt>
<trkpt lat="53.0374543349" lon="-3.0451916655"><ele>114</ele><time>2012-12-29T14:00:36Z</time></trkpt>
<trkpt lat="53.0374106685" lon="-3.0454071681"><ele>115</ele><time>2012-12-29T14:00:49Z</time></trkpt>
<trkpt lat="53.0373596668" lon="-3.0456263343"><ele>115</ele><time>2012-12-29T14:01:00Z</time></trkpt>
<trkpt lat="53.0372726679" lon="-3.0458384991"><ele>115</ele><time>2012-12-29T14:01:10Z</time></trkpt>
<trkpt lat="53.0372323314" lon="-3.0460574985"><ele>115</ele><time>2012-12-29T14:01:21Z</time></trkpt>
<trkpt lat="53.0371586680" lon="-3.0462574999"><ele>116</ele><time>2012-12-29T14:01:34Z</time></trkpt>
<trkpt lat="53.0371164997" lon="-3.0464806676"><ele>117</ele><time>2012-12-29T14:01:51Z</time></trkpt>
<trkpt lat="53.0370681683" lon="-3.0467009981"><ele>117</ele><time>2012-12-29T14:02:03Z</time></trkpt>
<trkpt lat="53.0370193322" lon="-3.0469156663"><ele>118</ele><time>2012-12-29T14:02:15Z</time></trkpt>
<trkpt lat="53.0369676669" lon="-3.0471300006"><ele>118</ele><time>2012-12-29T14:02:26Z</time></trkpt>
<trkpt lat="53.0369361679" lon="-3.0473509987"><ele>118</ele><time>2012-12-29T14:02:36Z</time></trkpt>
<trkpt lat="53.0369040012" lon="-3.0475696683"><ele>118</ele><time>2012-12-29T14:02:47Z</time></trkpt>
<trkpt lat="53.0368789991" lon="-3.0478098353"><ele>118</ele><time>2012-12-29T14:03:02Z</time></trkpt>
<trkpt lat="53.0368931651" lon="-3.0480368336"><ele>118</ele><time>2012-12-29T14:03:14Z</time></trkpt>
<trkpt lat="53.0369715015" lon="-3.0482341647"><ele>118</ele><time>2012-12-29T14:03:26Z</time></trkpt>
<trkpt lat="53.0370830019" lon="-3.0483749986"><ele>119</ele><time>2012-12-29T14:03:38Z</time></trkpt>
<trkpt lat="53.0371398330" lon="-3.0485840003"><ele>119</ele><time>2012-12-29T14:03:52Z</time></trkpt>
<trkpt lat="53.0371218324" lon="-3.0488084992"><ele>119</ele><time>2012-12-29T14:04:05Z</time></trkpt>
<trkpt lat="53.0371008317" lon="-3.0490355015"><ele>120</ele><time>2012-12-29T14:04:15Z</time></trkpt>
<trkpt lat="53.0370710015" lon="-3.0492643317"><ele>121</ele><time>2012-12-29T14:04:31Z</time></trkpt>
<trkpt lat="53.0370463332" lon="-3.0494894981"><ele>122</ele><time>2012-12-29T14:04:47Z</time></trkpt>
<trkpt lat="53.0370251656" lon="-3.0497298320"><ele>124</ele><time>2012-12-29T14:05:07Z</time></trkpt>
<trkpt lat="53.0370016654" lon="-3.0499704997"><ele>125</ele><time>2012-12-29T14:05:23Z</time></trkpt>
<trkpt lat="53.0369791667" lon="-3.0502081672"><ele>126</ele><time>2012-12-29T14:05:37Z</time></trkpt>
<trkpt lat="53.0370013316" lon="-3.0504391670"><ele>127</ele><time>2012-12-29T14:05:52Z</time></trkpt>
<trkpt lat="53.0370109995" lon="-3.0506631653"><ele>128</ele><time>2012-12-29T14:06:05Z</time></trkpt>
<trkpt lat="53.0369988322" lon="-3.0509004990"><ele>129</ele><time>2012-12-29T14:06:18Z</time></trkpt>
<trkpt lat="53.0370175004" lon="-3.0511250019"><ele>130</ele><time>2012-12-29T14:06:31Z</time></trkpt>
<trkpt lat="53.0370276650" lon="-3.0513616681"><ele>130</ele><time>2012-12-29T14:06:44Z</time></trkpt>
<trkpt lat="53.0370303353" lon="-3.0515916665"><ele>131</ele><time>2012-12-29T14:06:56Z</time></trkpt>
<trkpt lat="53.0370334983" lon="-3.0518265009"><ele>131</ele><time>2012-12-29T14:07:10Z</time></trkpt>
<trkpt lat="53.0370659987" lon="-3.0520521681"><ele>132</ele><time>2012-12-29T14:07:23Z</time></trkpt>
<trkpt lat="53.0371435006" lon="-3.0522413333"><ele>133</ele><time>2012-12-29T14:07:34Z</time></trkpt>
<trkpt lat="53.0372283340" lon="-3.0524284999"><ele>135</ele><time>2012-12-29T14:07:47Z</time></trkpt>
<trkpt lat="53.0373171647" lon="-3.0526046673"><ele>136</ele><time>2012-12-29T14:07:58Z</time></trkpt>
<trkpt lat="53.0374390006" lon="-3.0527286649"><ele>141</ele><time>2012-12-29T14:08:11Z</time></trkpt>
<trkpt lat="53.0375778317" lon="-3.0527886669"><ele>144</ele><time>2012-12-29T14:08:22Z</time></trkpt>
<trkpt lat="53.0377134999" lon="-3.0528476675"><ele>146</ele><time>2012-12-29T14:08:33Z</time></trkpt>
<trkpt lat="53.0378555020" lon="-3.0529196660"><ele>148</ele><time>2012-12-29T14:08:44Z</time></trkpt>
<trkpt lat="53.0379649997" lon="-3.0530703346"><ele>150</ele><time>2012-12-29T14:08:55Z</time></trkpt>
<trkpt lat="53.0380505006" lon="-3.0532474995"><ele>150</ele><time>2012-12-29T14:09:06Z</time></trkpt>
<trkpt lat="53.0381270011" lon="-3.0534586668"><ele>150</ele><time>2012-12-29T14:09:19Z</time></trkpt>
<trkpt lat="53.0382060011" lon="-3.0536456664"><ele>151</ele><time>2012-12-29T14:09:31Z</time></trkpt>
<trkpt lat="53.0382858316" lon="-3.0538329999"><ele>150</ele><time>2012-12-29T14:09:43Z</time></trkpt>
<trkpt lat="53.0383414984" lon="-3.0540418347"><ele>151</ele><time>2012-12-29T14:09:55Z</time></trkpt>
<trkpt lat="53.0383816679" lon="-3.0542661667"><ele>151</ele><time>2012-12-29T14:10:10Z</time></trkpt>
<trkpt lat="53.0383888324" lon="-3.0544975003"><ele>152</ele><time>2012-12-29T14:10:24Z</time></trkpt>
<trkpt lat="53.0384041667" lon="-3.0547236681"><ele>152</ele><time>2012-12-29T14:10:37Z</time></trkpt>
<trkpt lat="53.0384223342" lon="-3.0549524983"><ele>153</ele><time>2012-12-29T14:10:50Z</time></trkpt>
<trkpt lat="53.0384521683" lon="-3.0551779985"><ele>153</ele><time>2012-12-29T14:11:02Z</time></trkpt>
<trkpt lat="53.0384993315" lon="-3.0553941647"><ele>153</ele><time>2012-12-29T14:11:14Z</time></trkpt>
<trkpt lat="53.0385691682" lon="-3.0555888335"><ele>154</ele><time>2012-12-29T14:11:29Z</time></trkpt>
<trkpt lat="53.0386801680" lon="-3.0557168325"><ele>161</ele><time>2012-12-29T14:12:41Z</time></trkpt>
<trkpt lat="53.0387533347" lon="-3.0559141676"><ele>163</ele><time>2012-12-29T14:18:59Z</time></trkpt>
<trkpt lat="53.0388586680" lon="-3.0557656686"><ele>166</ele><time>2012-12-29T14:19:34Z</time></trkpt>
<trkpt lat="53.0389951666" lon="-3.0558218320"><ele>166</ele><time>2012-12-29T14:19:46Z</time></trkpt>
<trkpt lat="53.0391361674" lon="-3.0558334986"><ele>167</ele><time>2012-12-29T14:20:00Z</time></trkpt>
<trkpt lat="53.0392689983" lon="-3.0557936668"><ele>167</ele><time>2012-12-29T14:20:12Z</time></trkpt>
<trkpt lat="53.0394039989" lon="-3.0558675011"><ele>167</ele><time>2012-12-29T14:20:28Z</time></trkpt>
<trkpt lat="53.0395141681" lon="-3.0560128331"><ele>167</ele><time>2012-12-29T14:20:39Z</time></trkpt>
<trkpt lat="53.0396548351" lon="-3.0559708317"><ele>167</ele><time>2012-12-29T14:20:58Z</time></trkpt>
<trkpt lat="53.0397901654" lon="-3.0559508324"><ele>167</ele><time>2012-12-29T14:21:16Z</time></trkpt>
<trkpt lat="53.0399268349" lon="-3.0559451660"><ele>166</ele><time>2012-12-29T14:21:28Z</time></trkpt>
<trkpt lat="53.0400701682" lon="-3.0560063322"><ele>165</ele><time>2012-12-29T14:21:46Z</time></trkpt>
<trkpt lat="53.0402070006" lon="-3.0560506662"><ele>164</ele><time>2012-12-29T14:21:58Z</time></trkpt>
<trkpt lat="53.0403253317" lon="-3.0561633348"><ele>163</ele><time>2012-12-29T14:22:10Z</time></trkpt>
<trkpt lat="53.0404286663" lon="-3.0563445012"><ele>162</ele><time>2012-12-29T14:22:28Z</time></trkpt>
<trkpt lat="53.0405410012" lon="-3.0564893325"><ele>160</ele><time>2012-12-29T14:22:45Z</time></trkpt>
<trkpt lat="53.0406296651" lon="-3.0566876650"><ele>159</ele><time>2012-12-29T14:22:58Z</time></trkpt>
<trkpt lat="53.0407511671" lon="-3.0567941666"><ele>158</ele><time>2012-12-29T14:23:09Z</time></trkpt>
<trkpt lat="53.0408630013" lon="-3.0569396655"><ele>157</ele><time>2012-12-29T14:23:21Z</time></trkpt>
<trkpt lat="53.0409789999" lon="-3.0570796649"><ele>156</ele><time>2012-12-29T14:23:32Z</time></trkpt>
<trkpt lat="53.0410320004" lon="-3.0573095004"><ele>155</ele><time>2012-12-29T14:23:49Z</time></trkpt>
<trkpt lat="53.0411304990" lon="-3.0574641665"><ele>153</ele><time>2012-12-29T14:24:12Z</time></trkpt>
<trkpt lat="53.0412029982" lon="-3.0576589982"><ele>153</ele><time>2012-12-29T14:24:22Z</time></trkpt>
<trkpt lat="53.0412986676" lon="-3.0578370015"><ele>153</ele><time>2012-12-29T14:24:38Z</time></trkpt>
<trkpt lat="53.0414109985" lon="-3.0579656680"><ele>152</ele><time>2012-12-29T14:24:50Z</time></trkpt>
<trkpt lat="53.0415284991" lon="-3.0580873330"><ele>152</ele><time>2012-12-29T14:25:04Z</time></trkpt>
<trkpt lat="53.0416446686" lon="-3.0582078338"><ele>152</ele><time>2012-12-29T14:25:21Z</time></trkpt>
<trkpt lat="53.0417631666" lon="-3.0583278338"><ele>152</ele><time>2012-12-29T14:25:33Z</time></trkpt>
<trkpt lat="53.0418865005" lon="-3.0584363341"><ele>152</ele><time>2012-12-29T14:25:45Z</time></trkpt>
<trkpt lat="53.0419890006" lon="-3.0585848331"><ele>152</ele><time>2012-12-29T14:25:59Z</time></trkpt>
<trkpt lat="53.0421115001" lon="-3.0587009986"><ele>151</ele><time>2012-12-29T14:26:18Z</time></trkpt>
<trkpt lat="53.0422271649" lon="-3.0588286678"><ele>151</ele><time>2012-12-29T14:26:33Z</time></trkpt>
<trkpt lat="53.0423631668" lon="-3.0588674982"><ele>151</ele><time>2012-12-29T14:26:50Z</time></trkpt>
<trkpt lat="53.0425049980" lon="-3.0589276671"><ele>151</ele><time>2012-12-29T14:27:04Z</time></trkpt>
<trkpt lat="53.0426993330" lon="-3.0589828332"><ele>152</ele><time>2012-12-29T14:27:14Z</time></trkpt>
<trkpt lat="53.0428333322" lon="-3.0590655009"><ele>152</ele><time>2012-12-29T14:27:30Z</time></trkpt>
<trkpt lat="53.0428636670" lon="-3.0592876673"><ele>152</ele><time>2012-12-29T14:27:40Z</time></trkpt>
<trkpt lat="53.0429285010" lon="-3.0594903350"><ele>151</ele><time>2012-12-29T14:27:52Z</time></trkpt>
<trkpt lat="53.0430213332" lon="-3.0596748352"><ele>151</ele><time>2012-12-29T14:28:04Z</time></trkpt>
<trkpt lat="53.0431305011" lon="-3.0598186652"><ele>151</ele><time>2012-12-29T14:28:16Z</time></trkpt>
<trkpt lat="53.0431768338" lon="-3.0600401680"><ele>151</ele><time>2012-12-29T14:28:30Z</time></trkpt>
<trkpt lat="53.0432533344" lon="-3.0602265000"><ele>150</ele><time>2012-12-29T14:28:44Z</time></trkpt>
<trkpt lat="53.0432721655" lon="-3.0604678353"><ele>150</ele><time>2012-12-29T14:28:56Z</time></trkpt>
<trkpt lat="53.0432860017" lon="-3.0607021650"><ele>150</ele><time>2012-12-29T14:29:08Z</time></trkpt>
<trkpt lat="53.0432779988" lon="-3.0609261672"><ele>150</ele><time>2012-12-29T14:29:19Z</time></trkpt>
<trkpt lat="53.0433111668" lon="-3.0611563325"><ele>150</ele><time>2012-12-29T14:29:31Z</time></trkpt>
<trkpt lat="53.0433331649" lon="-3.0613811652"><ele>150</ele><time>2012-12-29T14:29:42Z</time></trkpt>
<trkpt lat="53.0433629990" lon="-3.0616031686"><ele>151</ele><time>2012-12-29T14:29:54Z</time></trkpt>
</trkseg>
</trk>
</gpx>